<?xml version="1.0" encoding="utf-8"?>
<gpx xmlns:xsi="http://www.w3.org/2001/XMLSchema-instance" xmlns:xsd="http://www.w3.org/2001/XMLSchema" version="1.1" creator="Shapelink.com" xmlns="http://www.topografix.com/GPX/1/1" xmlns:gpxtpx="http://www.garmin.com/xmlschemas/TrackPointExtension/v1">
  <metadata>
    <name>Sykling 46.84 km, 2012-04-11</name>
    <desc></desc>
    <author><name>Mikael Blom</name></author> 
    <time>2012-04-11T16:34:42Z</time>
  </metadata>
  <trk>
    <name>Sykling 46.84 km, 2012-04-11</name>
    <trkseg>
      <trkpt lat="59.9788045" lon="17.7392992">
        <ele>43.8773</ele>
        <time>2012-04-11T16:34:42Z</time>
      </trkpt>
      <trkpt lat="59.9785522" lon="17.7392626">
        <ele>43.3966</ele>
        <time>2012-04-11T16:34:48Z</time>
      </trkpt>
      <trkpt lat="59.9782909" lon="17.7392088">
        <ele>44.358</ele>
        <time>2012-04-11T16:34:53Z</time>
      </trkpt>
      <trkpt lat="59.9782378" lon="17.7392023">
        <ele>44.358</ele>
        <time>2012-04-11T16:34:54Z</time>
      </trkpt>
      <trkpt lat="59.9778513" lon="17.7390078">
        <ele>41.9547</ele>
        <time>2012-04-11T16:35:01Z</time>
      </trkpt>
      <trkpt lat="59.9775365" lon="17.7389653">
        <ele>40.0321</ele>
        <time>2012-04-11T16:35:06Z</time>
      </trkpt>
      <trkpt lat="59.9771866" lon="17.7391158">
        <ele>38.1094</ele>
        <time>2012-04-11T16:35:11Z</time>
      </trkpt>
      <trkpt lat="59.9767854" lon="17.7393059">
        <ele>36.6675</ele>
        <time>2012-04-11T16:35:17Z</time>
      </trkpt>
      <trkpt lat="59.9766075" lon="17.7393907">
        <ele>35.2255</ele>
        <time>2012-04-11T16:35:20Z</time>
      </trkpt>
      <trkpt lat="59.9763814" lon="17.739643">
        <ele>34.7449</ele>
        <time>2012-04-11T16:35:24Z</time>
      </trkpt>
      <trkpt lat="59.9762019" lon="17.7397312">
        <ele>34.7449</ele>
        <time>2012-04-11T16:35:27Z</time>
      </trkpt>
      <trkpt lat="59.9760197" lon="17.7394883">
        <ele>32.8223</ele>
        <time>2012-04-11T16:35:30Z</time>
      </trkpt>
      <trkpt lat="59.9754841" lon="17.7385227">
        <ele>30.8995</ele>
        <time>2012-04-11T16:35:39Z</time>
      </trkpt>
      <trkpt lat="59.9749717" lon="17.7376157">
        <ele>30.4188</ele>
        <time>2012-04-11T16:35:49Z</time>
      </trkpt>
      <trkpt lat="59.9746589" lon="17.7368913">
        <ele>29.4575</ele>
        <time>2012-04-11T16:35:56Z</time>
      </trkpt>
      <trkpt lat="59.9744634" lon="17.7361685">
        <ele>28.9769</ele>
        <time>2012-04-11T16:36:02Z</time>
      </trkpt>
      <trkpt lat="59.9743123" lon="17.7352233">
        <ele>28.4962</ele>
        <time>2012-04-11T16:36:09Z</time>
      </trkpt>
      <trkpt lat="59.9742749" lon="17.7341923">
        <ele>28.0155</ele>
        <time>2012-04-11T16:36:16Z</time>
      </trkpt>
      <trkpt lat="59.9743306" lon="17.7328919">
        <ele>28.4962</ele>
        <time>2012-04-11T16:36:25Z</time>
      </trkpt>
      <trkpt lat="59.9743159" lon="17.7317841">
        <ele>28.9769</ele>
        <time>2012-04-11T16:36:33Z</time>
      </trkpt>
      <trkpt lat="59.9743525" lon="17.7307251">
        <ele>29.4575</ele>
        <time>2012-04-11T16:36:41Z</time>
      </trkpt>
      <trkpt lat="59.9744478" lon="17.7293276">
        <ele>29.9381</ele>
        <time>2012-04-11T16:36:52Z</time>
      </trkpt>
      <trkpt lat="59.9744237" lon="17.7284171">
        <ele>29.9381</ele>
        <time>2012-04-11T16:36:59Z</time>
      </trkpt>
      <trkpt lat="59.9743952" lon="17.7270583">
        <ele>31.3801</ele>
        <time>2012-04-11T16:37:10Z</time>
      </trkpt>
      <trkpt lat="59.974372" lon="17.7262879">
        <ele>32.3416</ele>
        <time>2012-04-11T16:37:17Z</time>
      </trkpt>
      <trkpt lat="59.9742946" lon="17.7252214">
        <ele>32.8223</ele>
        <time>2012-04-11T16:37:26Z</time>
      </trkpt>
      <trkpt lat="59.9741381" lon="17.724099">
        <ele>32.8223</ele>
        <time>2012-04-11T16:37:35Z</time>
      </trkpt>
      <trkpt lat="59.9739593" lon="17.7229851">
        <ele>32.8223</ele>
        <time>2012-04-11T16:37:44Z</time>
      </trkpt>
      <trkpt lat="59.9736876" lon="17.7220111">
        <ele>32.8223</ele>
        <time>2012-04-11T16:37:53Z</time>
      </trkpt>
      <trkpt lat="59.9733448" lon="17.7212176">
        <ele>33.3029</ele>
        <time>2012-04-11T16:38:02Z</time>
      </trkpt>
      <trkpt lat="59.9729888" lon="17.7206547">
        <ele>33.3029</ele>
        <time>2012-04-11T16:38:10Z</time>
      </trkpt>
      <trkpt lat="59.972548" lon="17.720175">
        <ele>32.8223</ele>
        <time>2012-04-11T16:38:19Z</time>
      </trkpt>
      <trkpt lat="59.9721574" lon="17.7198238">
        <ele>32.8223</ele>
        <time>2012-04-11T16:38:27Z</time>
      </trkpt>
      <trkpt lat="59.9716704" lon="17.7193918">
        <ele>33.3029</ele>
        <time>2012-04-11T16:38:37Z</time>
      </trkpt>
      <trkpt lat="59.9711856" lon="17.7189578">
        <ele>33.3029</ele>
        <time>2012-04-11T16:38:47Z</time>
      </trkpt>
      <trkpt lat="59.9706971" lon="17.7185172">
        <ele>33.3029</ele>
        <time>2012-04-11T16:38:57Z</time>
      </trkpt>
      <trkpt lat="59.9703386" lon="17.7181945">
        <ele>33.3029</ele>
        <time>2012-04-11T16:39:04Z</time>
      </trkpt>
      <trkpt lat="59.9697663" lon="17.7176928">
        <ele>33.3029</ele>
        <time>2012-04-11T16:39:15Z</time>
      </trkpt>
      <trkpt lat="59.9692472" lon="17.7173648">
        <ele>33.7834</ele>
        <time>2012-04-11T16:39:25Z</time>
      </trkpt>
      <trkpt lat="59.9686774" lon="17.7171327">
        <ele>33.7834</ele>
        <time>2012-04-11T16:39:36Z</time>
      </trkpt>
      <trkpt lat="59.968265" lon="17.7168973">
        <ele>32.3416</ele>
        <time>2012-04-11T16:39:43Z</time>
      </trkpt>
      <trkpt lat="59.9679535" lon="17.7165147">
        <ele>28.9769</ele>
        <time>2012-04-11T16:39:48Z</time>
      </trkpt>
      <trkpt lat="59.9678325" lon="17.7162971">
        <ele>28.0155</ele>
        <time>2012-04-11T16:39:50Z</time>
      </trkpt>
      <trkpt lat="59.9675465" lon="17.7153886">
        <ele>25.1317</ele>
        <time>2012-04-11T16:39:56Z</time>
      </trkpt>
      <trkpt lat="59.9674668" lon="17.7146955">
        <ele>25.1317</ele>
        <time>2012-04-11T16:40:00Z</time>
      </trkpt>
      <trkpt lat="59.9673596" lon="17.7139325">
        <ele>27.0543</ele>
        <time>2012-04-11T16:40:06Z</time>
      </trkpt>
      <trkpt lat="59.9672579" lon="17.713277">
        <ele>28.9769</ele>
        <time>2012-04-11T16:40:13Z</time>
      </trkpt>
      <trkpt lat="59.967097" lon="17.7126073">
        <ele>30.4188</ele>
        <time>2012-04-11T16:40:21Z</time>
      </trkpt>
      <trkpt lat="59.966851" lon="17.7119309">
        <ele>29.9381</ele>
        <time>2012-04-11T16:40:29Z</time>
      </trkpt>
      <trkpt lat="59.9665746" lon="17.7111249">
        <ele>29.4575</ele>
        <time>2012-04-11T16:40:37Z</time>
      </trkpt>
      <trkpt lat="59.9662188" lon="17.7098697">
        <ele>28.4962</ele>
        <time>2012-04-11T16:40:48Z</time>
      </trkpt>
      <trkpt lat="59.9658392" lon="17.7086446">
        <ele>28.0155</ele>
        <time>2012-04-11T16:40:59Z</time>
      </trkpt>
      <trkpt lat="59.965573" lon="17.7081279">
        <ele>28.0155</ele>
        <time>2012-04-11T16:41:05Z</time>
      </trkpt>
      <trkpt lat="59.9652371" lon="17.7078066">
        <ele>28.4962</ele>
        <time>2012-04-11T16:41:11Z</time>
      </trkpt>
      <trkpt lat="59.9646053" lon="17.7073403">
        <ele>29.4575</ele>
        <time>2012-04-11T16:41:22Z</time>
      </trkpt>
      <trkpt lat="59.9642029" lon="17.7071807">
        <ele>29.4575</ele>
        <time>2012-04-11T16:41:29Z</time>
      </trkpt>
      <trkpt lat="59.9636631" lon="17.7070999">
        <ele>29.4575</ele>
        <time>2012-04-11T16:41:38Z</time>
      </trkpt>
      <trkpt lat="59.9629445" lon="17.707088">
        <ele>29.9381</ele>
        <time>2012-04-11T16:41:50Z</time>
      </trkpt>
      <trkpt lat="59.9624924" lon="17.7070163">
        <ele>29.9381</ele>
        <time>2012-04-11T16:41:58Z</time>
      </trkpt>
      <trkpt lat="59.9620148" lon="17.706775">
        <ele>29.9381</ele>
        <time>2012-04-11T16:42:07Z</time>
      </trkpt>
      <trkpt lat="59.9615967" lon="17.7064011">
        <ele>30.4188</ele>
        <time>2012-04-11T16:42:15Z</time>
      </trkpt>
      <trkpt lat="59.9613004" lon="17.7059145">
        <ele>29.9381</ele>
        <time>2012-04-11T16:42:22Z</time>
      </trkpt>
      <trkpt lat="59.9610103" lon="17.7053911">
        <ele>29.9381</ele>
        <time>2012-04-11T16:42:30Z</time>
      </trkpt>
      <trkpt lat="59.9607874" lon="17.7050574">
        <ele>29.4575</ele>
        <time>2012-04-11T16:42:35Z</time>
      </trkpt>
      <trkpt lat="59.9603808" lon="17.7045596">
        <ele>30.4188</ele>
        <time>2012-04-11T16:42:43Z</time>
      </trkpt>
      <trkpt lat="59.9602115" lon="17.7043513">
        <ele>30.4188</ele>
        <time>2012-04-11T16:42:46Z</time>
      </trkpt>
      <trkpt lat="59.960019" lon="17.7040053">
        <ele>30.4188</ele>
        <time>2012-04-11T16:42:50Z</time>
      </trkpt>
      <trkpt lat="59.9597691" lon="17.7031981">
        <ele>31.8607</ele>
        <time>2012-04-11T16:42:57Z</time>
      </trkpt>
      <trkpt lat="59.9595265" lon="17.7023601">
        <ele>31.8607</ele>
        <time>2012-04-11T16:43:05Z</time>
      </trkpt>
      <trkpt lat="59.9592848" lon="17.7014218">
        <ele>31.8607</ele>
        <time>2012-04-11T16:43:13Z</time>
      </trkpt>
      <trkpt lat="59.9591572" lon="17.7004725">
        <ele>31.3801</ele>
        <time>2012-04-11T16:43:20Z</time>
      </trkpt>
      <trkpt lat="59.9590605" lon="17.6992488">
        <ele>31.3801</ele>
        <time>2012-04-11T16:43:28Z</time>
      </trkpt>
      <trkpt lat="59.959034" lon="17.6980677">
        <ele>31.3801</ele>
        <time>2012-04-11T16:43:36Z</time>
      </trkpt>
      <trkpt lat="59.958915" lon="17.6971589">
        <ele>29.4575</ele>
        <time>2012-04-11T16:43:42Z</time>
      </trkpt>
      <trkpt lat="59.9586946" lon="17.6963014">
        <ele>28.9769</ele>
        <time>2012-04-11T16:43:48Z</time>
      </trkpt>
      <trkpt lat="59.9583696" lon="17.6954935">
        <ele>28.0155</ele>
        <time>2012-04-11T16:43:55Z</time>
      </trkpt>
      <trkpt lat="59.9579074" lon="17.694247">
        <ele>27.0543</ele>
        <time>2012-04-11T16:44:06Z</time>
      </trkpt>
      <trkpt lat="59.9575956" lon="17.6933408">
        <ele>27.0543</ele>
        <time>2012-04-11T16:44:14Z</time>
      </trkpt>
      <trkpt lat="59.9573666" lon="17.6926925">
        <ele>27.0543</ele>
        <time>2012-04-11T16:44:20Z</time>
      </trkpt>
      <trkpt lat="59.9571647" lon="17.6924913">
        <ele>26.5736</ele>
        <time>2012-04-11T16:44:24Z</time>
      </trkpt>
      <trkpt lat="59.9569849" lon="17.6923605">
        <ele>26.0929</ele>
        <time>2012-04-11T16:44:27Z</time>
      </trkpt>
      <trkpt lat="59.9569093" lon="17.6921605">
        <ele>25.6123</ele>
        <time>2012-04-11T16:44:29Z</time>
      </trkpt>
      <trkpt lat="59.9568187" lon="17.6918374">
        <ele>26.0929</ele>
        <time>2012-04-11T16:44:32Z</time>
      </trkpt>
      <trkpt lat="59.956743" lon="17.6913846">
        <ele>26.0929</ele>
        <time>2012-04-11T16:44:36Z</time>
      </trkpt>
      <trkpt lat="59.9565773" lon="17.690855">
        <ele>28.0155</ele>
        <time>2012-04-11T16:44:42Z</time>
      </trkpt>
      <trkpt lat="59.9563582" lon="17.6902258">
        <ele>29.4575</ele>
        <time>2012-04-11T16:44:49Z</time>
      </trkpt>
      <trkpt lat="59.9562084" lon="17.6896253">
        <ele>29.4575</ele>
        <time>2012-04-11T16:44:55Z</time>
      </trkpt>
      <trkpt lat="59.9560894" lon="17.6889353">
        <ele>29.9381</ele>
        <time>2012-04-11T16:45:01Z</time>
      </trkpt>
      <trkpt lat="59.955973" lon="17.6882262">
        <ele>29.9381</ele>
        <time>2012-04-11T16:45:07Z</time>
      </trkpt>
      <trkpt lat="59.9557862" lon="17.6870182">
        <ele>29.4575</ele>
        <time>2012-04-11T16:45:16Z</time>
      </trkpt>
      <trkpt lat="59.955605" lon="17.6857352">
        <ele>28.9769</ele>
        <time>2012-04-11T16:45:25Z</time>
      </trkpt>
      <trkpt lat="59.9554372" lon="17.6845924">
        <ele>28.4962</ele>
        <time>2012-04-11T16:45:33Z</time>
      </trkpt>
      <trkpt lat="59.9551812" lon="17.6833316">
        <ele>28.0155</ele>
        <time>2012-04-11T16:45:42Z</time>
      </trkpt>
      <trkpt lat="59.9548544" lon="17.6821753">
        <ele>28.0155</ele>
        <time>2012-04-11T16:45:51Z</time>
      </trkpt>
      <trkpt lat="59.9546457" lon="17.6818014">
        <ele>28.0155</ele>
        <time>2012-04-11T16:45:55Z</time>
      </trkpt>
      <trkpt lat="59.9545575" lon="17.6815951">
        <ele>27.5349</ele>
        <time>2012-04-11T16:45:57Z</time>
      </trkpt>
      <trkpt lat="59.954229" lon="17.6805481">
        <ele>27.5349</ele>
        <time>2012-04-11T16:46:06Z</time>
      </trkpt>
      <trkpt lat="59.9539153" lon="17.6796309">
        <ele>28.4962</ele>
        <time>2012-04-11T16:46:14Z</time>
      </trkpt>
      <trkpt lat="59.9535604" lon="17.6785566">
        <ele>29.4575</ele>
        <time>2012-04-11T16:46:24Z</time>
      </trkpt>
      <trkpt lat="59.9533006" lon="17.6777522">
        <ele>30.4188</ele>
        <time>2012-04-11T16:46:32Z</time>
      </trkpt>
      <trkpt lat="59.9529869" lon="17.6769047">
        <ele>30.8995</ele>
        <time>2012-04-11T16:46:41Z</time>
      </trkpt>
      <trkpt lat="59.952802" lon="17.6764601">
        <ele>31.3801</ele>
        <time>2012-04-11T16:46:46Z</time>
      </trkpt>
      <trkpt lat="59.9525106" lon="17.6756562">
        <ele>32.3416</ele>
        <time>2012-04-11T16:46:55Z</time>
      </trkpt>
      <trkpt lat="59.9523295" lon="17.6751618">
        <ele>34.2642</ele>
        <time>2012-04-11T16:47:02Z</time>
      </trkpt>
      <trkpt lat="59.9522222" lon="17.6746047">
        <ele>32.8223</ele>
        <time>2012-04-11T16:47:08Z</time>
      </trkpt>
      <trkpt lat="59.9520752" lon="17.6738659">
        <ele>31.8607</ele>
        <time>2012-04-11T16:47:14Z</time>
      </trkpt>
      <trkpt lat="59.9519002" lon="17.6727786">
        <ele>30.4188</ele>
        <time>2012-04-11T16:47:22Z</time>
      </trkpt>
      <trkpt lat="59.9518132" lon="17.6720278">
        <ele>29.4575</ele>
        <time>2012-04-11T16:47:27Z</time>
      </trkpt>
      <trkpt lat="59.9517985" lon="17.6715598">
        <ele>28.9769</ele>
        <time>2012-04-11T16:47:30Z</time>
      </trkpt>
      <trkpt lat="59.9517429" lon="17.6710769">
        <ele>28.0155</ele>
        <time>2012-04-11T16:47:33Z</time>
      </trkpt>
      <trkpt lat="59.9517421" lon="17.6703505">
        <ele>26.5736</ele>
        <time>2012-04-11T16:47:37Z</time>
      </trkpt>
      <trkpt lat="59.9518062" lon="17.6690829">
        <ele>26.0929</ele>
        <time>2012-04-11T16:47:44Z</time>
      </trkpt>
      <trkpt lat="59.9518087" lon="17.6689127">
        <ele>25.6123</ele>
        <time>2012-04-11T16:47:45Z</time>
      </trkpt>
      <trkpt lat="59.9516966" lon="17.668265">
        <ele>25.1317</ele>
        <time>2012-04-11T16:47:49Z</time>
      </trkpt>
      <trkpt lat="59.9515613" lon="17.6680731">
        <ele>25.1317</ele>
        <time>2012-04-11T16:47:51Z</time>
      </trkpt>
      <trkpt lat="59.9513268" lon="17.6680766">
        <ele>25.6123</ele>
        <time>2012-04-11T16:47:54Z</time>
      </trkpt>
      <trkpt lat="59.9507385" lon="17.6682326">
        <ele>27.5349</ele>
        <time>2012-04-11T16:48:03Z</time>
      </trkpt>
      <trkpt lat="59.9502015" lon="17.6682413">
        <ele>28.9769</ele>
        <time>2012-04-11T16:48:12Z</time>
      </trkpt>
      <trkpt lat="59.9496842" lon="17.6680628">
        <ele>29.4575</ele>
        <time>2012-04-11T16:48:21Z</time>
      </trkpt>
      <trkpt lat="59.9491216" lon="17.6677529">
        <ele>29.4575</ele>
        <time>2012-04-11T16:48:31Z</time>
      </trkpt>
      <trkpt lat="59.9485894" lon="17.667445">
        <ele>29.4575</ele>
        <time>2012-04-11T16:48:41Z</time>
      </trkpt>
      <trkpt lat="59.9480249" lon="17.6671296">
        <ele>29.9381</ele>
        <time>2012-04-11T16:48:52Z</time>
      </trkpt>
      <trkpt lat="59.9473678" lon="17.6667925">
        <ele>30.8995</ele>
        <time>2012-04-11T16:49:05Z</time>
      </trkpt>
      <trkpt lat="59.9468847" lon="17.6665712">
        <ele>30.8995</ele>
        <time>2012-04-11T16:49:14Z</time>
      </trkpt>
      <trkpt lat="59.9464979" lon="17.6664874">
        <ele>30.8995</ele>
        <time>2012-04-11T16:49:21Z</time>
      </trkpt>
      <trkpt lat="59.9462297" lon="17.6663427">
        <ele>31.3801</ele>
        <time>2012-04-11T16:49:26Z</time>
      </trkpt>
      <trkpt lat="59.9461782" lon="17.6663051">
        <ele>31.3801</ele>
        <time>2012-04-11T16:49:27Z</time>
      </trkpt>
      <trkpt lat="59.9457086" lon="17.6661155">
        <ele>31.3801</ele>
        <time>2012-04-11T16:49:36Z</time>
      </trkpt>
      <trkpt lat="59.9452007" lon="17.665918">
        <ele>31.8607</ele>
        <time>2012-04-11T16:49:46Z</time>
      </trkpt>
      <trkpt lat="59.9445799" lon="17.6656805">
        <ele>32.3416</ele>
        <time>2012-04-11T16:49:58Z</time>
      </trkpt>
      <trkpt lat="59.9439538" lon="17.6654173">
        <ele>33.3029</ele>
        <time>2012-04-11T16:50:10Z</time>
      </trkpt>
      <trkpt lat="59.9433597" lon="17.6650282">
        <ele>34.2642</ele>
        <time>2012-04-11T16:50:22Z</time>
      </trkpt>
      <trkpt lat="59.9429354" lon="17.6646527">
        <ele>34.2642</ele>
        <time>2012-04-11T16:50:31Z</time>
      </trkpt>
      <trkpt lat="59.9424816" lon="17.6641496">
        <ele>34.7449</ele>
        <time>2012-04-11T16:50:41Z</time>
      </trkpt>
      <trkpt lat="59.9420329" lon="17.6635301">
        <ele>34.2642</ele>
        <time>2012-04-11T16:50:52Z</time>
      </trkpt>
      <trkpt lat="59.9415973" lon="17.6627785">
        <ele>34.2642</ele>
        <time>2012-04-11T16:51:03Z</time>
      </trkpt>
      <trkpt lat="59.941256" lon="17.6623376">
        <ele>33.7834</ele>
        <time>2012-04-11T16:51:10Z</time>
      </trkpt>
      <trkpt lat="59.9408601" lon="17.6621111">
        <ele>33.7834</ele>
        <time>2012-04-11T16:51:17Z</time>
      </trkpt>
      <trkpt lat="59.9406843" lon="17.6620791">
        <ele>33.7834</ele>
        <time>2012-04-11T16:51:20Z</time>
      </trkpt>
      <trkpt lat="59.9404676" lon="17.6618427">
        <ele>33.3029</ele>
        <time>2012-04-11T16:51:24Z</time>
      </trkpt>
      <trkpt lat="59.9403879" lon="17.6614694">
        <ele>32.8223</ele>
        <time>2012-04-11T16:51:27Z</time>
      </trkpt>
      <trkpt lat="59.9404116" lon="17.6609091">
        <ele>32.8223</ele>
        <time>2012-04-11T16:51:31Z</time>
      </trkpt>
      <trkpt lat="59.9404426" lon="17.6607793">
        <ele>32.8223</ele>
        <time>2012-04-11T16:51:32Z</time>
      </trkpt>
      <trkpt lat="59.9405097" lon="17.660169">
        <ele>33.7834</ele>
        <time>2012-04-11T16:51:37Z</time>
      </trkpt>
      <trkpt lat="59.9404232" lon="17.6598891">
        <ele>34.2642</ele>
        <time>2012-04-11T16:51:40Z</time>
      </trkpt>
      <trkpt lat="59.9403517" lon="17.6596336">
        <ele>33.3029</ele>
        <time>2012-04-11T16:51:42Z</time>
      </trkpt>
      <trkpt lat="59.9402319" lon="17.6588622">
        <ele>31.8607</ele>
        <time>2012-04-11T16:51:48Z</time>
      </trkpt>
      <trkpt lat="59.9400188" lon="17.657876">
        <ele>33.7834</ele>
        <time>2012-04-11T16:51:56Z</time>
      </trkpt>
      <trkpt lat="59.9397947" lon="17.6567748">
        <ele>35.2255</ele>
        <time>2012-04-11T16:52:06Z</time>
      </trkpt>
      <trkpt lat="59.939576" lon="17.6556983">
        <ele>36.1868</ele>
        <time>2012-04-11T16:52:16Z</time>
      </trkpt>
      <trkpt lat="59.939375" lon="17.6546885">
        <ele>37.1481</ele>
        <time>2012-04-11T16:52:25Z</time>
      </trkpt>
      <trkpt lat="59.9391207" lon="17.65348">
        <ele>37.1481</ele>
        <time>2012-04-11T16:52:35Z</time>
      </trkpt>
      <trkpt lat="59.9387788" lon="17.6521396">
        <ele>36.6675</ele>
        <time>2012-04-11T16:52:46Z</time>
      </trkpt>
      <trkpt lat="59.9384493" lon="17.6510859">
        <ele>36.6675</ele>
        <time>2012-04-11T16:52:55Z</time>
      </trkpt>
      <trkpt lat="59.9381884" lon="17.6504866">
        <ele>36.6675</ele>
        <time>2012-04-11T16:53:01Z</time>
      </trkpt>
      <trkpt lat="59.9378544" lon="17.6496137">
        <ele>37.1481</ele>
        <time>2012-04-11T16:53:10Z</time>
      </trkpt>
      <trkpt lat="59.9378169" lon="17.649519">
        <ele>37.1481</ele>
        <time>2012-04-11T16:53:11Z</time>
      </trkpt>
      <trkpt lat="59.9377205" lon="17.6492138">
        <ele>37.1481</ele>
        <time>2012-04-11T16:53:14Z</time>
      </trkpt>
      <trkpt lat="59.9376704" lon="17.6490066">
        <ele>37.6287</ele>
        <time>2012-04-11T16:53:16Z</time>
      </trkpt>
      <trkpt lat="59.9374926" lon="17.6485897">
        <ele>38.1094</ele>
        <time>2012-04-11T16:53:21Z</time>
      </trkpt>
      <trkpt lat="59.9374497" lon="17.6485174">
        <ele>38.1094</ele>
        <time>2012-04-11T16:53:22Z</time>
      </trkpt>
      <trkpt lat="59.9371793" lon="17.6480469">
        <ele>38.1094</ele>
        <time>2012-04-11T16:53:28Z</time>
      </trkpt>
      <trkpt lat="59.9367249" lon="17.6474977">
        <ele>38.1094</ele>
        <time>2012-04-11T16:53:37Z</time>
      </trkpt>
      <trkpt lat="59.936368" lon="17.6470262">
        <ele>38.5901</ele>
        <time>2012-04-11T16:53:44Z</time>
      </trkpt>
      <trkpt lat="59.9359108" lon="17.6464254">
        <ele>39.0707</ele>
        <time>2012-04-11T16:53:53Z</time>
      </trkpt>
      <trkpt lat="59.9354871" lon="17.6459272">
        <ele>37.6287</ele>
        <time>2012-04-11T16:54:01Z</time>
      </trkpt>
      <trkpt lat="59.9351518" lon="17.6455529">
        <ele>37.6287</ele>
        <time>2012-04-11T16:54:07Z</time>
      </trkpt>
      <trkpt lat="59.9350426" lon="17.6454145">
        <ele>37.1481</ele>
        <time>2012-04-11T16:54:09Z</time>
      </trkpt>
      <trkpt lat="59.9346598" lon="17.6449701">
        <ele>36.6675</ele>
        <time>2012-04-11T16:54:16Z</time>
      </trkpt>
      <trkpt lat="59.9344925" lon="17.6447658">
        <ele>36.1868</ele>
        <time>2012-04-11T16:54:19Z</time>
      </trkpt>
      <trkpt lat="59.9342058" lon="17.6443139">
        <ele>34.2642</ele>
        <time>2012-04-11T16:54:24Z</time>
      </trkpt>
      <trkpt lat="59.9336514" lon="17.6436857">
        <ele>32.8223</ele>
        <time>2012-04-11T16:54:32Z</time>
      </trkpt>
      <trkpt lat="59.9333591" lon="17.6433489">
        <ele>31.8607</ele>
        <time>2012-04-11T16:54:36Z</time>
      </trkpt>
      <trkpt lat="59.9329139" lon="17.6426661">
        <ele>28.9769</ele>
        <time>2012-04-11T16:54:42Z</time>
      </trkpt>
      <trkpt lat="59.9328353" lon="17.6425582">
        <ele>28.4962</ele>
        <time>2012-04-11T16:54:43Z</time>
      </trkpt>
      <trkpt lat="59.9324702" lon="17.642024">
        <ele>27.0543</ele>
        <time>2012-04-11T16:54:48Z</time>
      </trkpt>
      <trkpt lat="59.931969" lon="17.6415577">
        <ele>27.0543</ele>
        <time>2012-04-11T16:54:55Z</time>
      </trkpt>
      <trkpt lat="59.931546" lon="17.6412691">
        <ele>26.0929</ele>
        <time>2012-04-11T16:55:01Z</time>
      </trkpt>
      <trkpt lat="59.9309611" lon="17.6408488">
        <ele>23.6896</ele>
        <time>2012-04-11T16:55:09Z</time>
      </trkpt>
      <trkpt lat="59.930582" lon="17.6407787">
        <ele>23.209</ele>
        <time>2012-04-11T16:55:14Z</time>
      </trkpt>
      <trkpt lat="59.9300571" lon="17.6407966">
        <ele>22.2476</ele>
        <time>2012-04-11T16:55:21Z</time>
      </trkpt>
      <trkpt lat="59.929566" lon="17.6408453">
        <ele>22.2476</ele>
        <time>2012-04-11T16:55:28Z</time>
      </trkpt>
      <trkpt lat="59.9289429" lon="17.6409086">
        <ele>22.2476</ele>
        <time>2012-04-11T16:55:37Z</time>
      </trkpt>
      <trkpt lat="59.928506" lon="17.6409995">
        <ele>22.7283</ele>
        <time>2012-04-11T16:55:44Z</time>
      </trkpt>
      <trkpt lat="59.9279683" lon="17.6410706">
        <ele>22.7283</ele>
        <time>2012-04-11T16:55:53Z</time>
      </trkpt>
      <trkpt lat="59.9274521" lon="17.6411249">
        <ele>23.209</ele>
        <time>2012-04-11T16:56:02Z</time>
      </trkpt>
      <trkpt lat="59.9268439" lon="17.6411842">
        <ele>23.209</ele>
        <time>2012-04-11T16:56:13Z</time>
      </trkpt>
      <trkpt lat="59.926289" lon="17.6412509">
        <ele>23.6896</ele>
        <time>2012-04-11T16:56:23Z</time>
      </trkpt>
      <trkpt lat="59.9257898" lon="17.6413204">
        <ele>24.651</ele>
        <time>2012-04-11T16:56:33Z</time>
      </trkpt>
      <trkpt lat="59.9252459" lon="17.6413784">
        <ele>25.1317</ele>
        <time>2012-04-11T16:56:44Z</time>
      </trkpt>
      <trkpt lat="59.9246756" lon="17.6414414">
        <ele>25.6123</ele>
        <time>2012-04-11T16:56:56Z</time>
      </trkpt>
      <trkpt lat="59.9242403" lon="17.6415126">
        <ele>26.0929</ele>
        <time>2012-04-11T16:57:05Z</time>
      </trkpt>
      <trkpt lat="59.9238005" lon="17.6415543">
        <ele>26.5736</ele>
        <time>2012-04-11T16:57:14Z</time>
      </trkpt>
      <trkpt lat="59.9233895" lon="17.6416136">
        <ele>28.0155</ele>
        <time>2012-04-11T16:57:23Z</time>
      </trkpt>
      <trkpt lat="59.9229939" lon="17.6416628">
        <ele>28.9769</ele>
        <time>2012-04-11T16:57:32Z</time>
      </trkpt>
      <trkpt lat="59.9226812" lon="17.6417021">
        <ele>29.9381</ele>
        <time>2012-04-11T16:57:39Z</time>
      </trkpt>
      <trkpt lat="59.9222393" lon="17.6417629">
        <ele>29.9381</ele>
        <time>2012-04-11T16:57:48Z</time>
      </trkpt>
      <trkpt lat="59.921679" lon="17.6418258">
        <ele>30.4188</ele>
        <time>2012-04-11T16:57:59Z</time>
      </trkpt>
      <trkpt lat="59.9215939" lon="17.641842">
        <ele>30.8995</ele>
        <time>2012-04-11T16:58:01Z</time>
      </trkpt>
      <trkpt lat="59.9212788" lon="17.6418761">
        <ele>30.8995</ele>
        <time>2012-04-11T16:58:08Z</time>
      </trkpt>
      <trkpt lat="59.9210029" lon="17.6419176">
        <ele>30.4188</ele>
        <time>2012-04-11T16:58:13Z</time>
      </trkpt>
      <trkpt lat="59.9205496" lon="17.6418973">
        <ele>29.9381</ele>
        <time>2012-04-11T16:58:21Z</time>
      </trkpt>
      <trkpt lat="59.9200564" lon="17.6419169">
        <ele>29.9381</ele>
        <time>2012-04-11T16:58:30Z</time>
      </trkpt>
      <trkpt lat="59.9196292" lon="17.6420157">
        <ele>29.9381</ele>
        <time>2012-04-11T16:58:38Z</time>
      </trkpt>
      <trkpt lat="59.9191634" lon="17.6420679">
        <ele>29.9381</ele>
        <time>2012-04-11T16:58:47Z</time>
      </trkpt>
      <trkpt lat="59.918633" lon="17.6421444">
        <ele>29.9381</ele>
        <time>2012-04-11T16:58:57Z</time>
      </trkpt>
      <trkpt lat="59.9181175" lon="17.6421995">
        <ele>28.4962</ele>
        <time>2012-04-11T16:59:06Z</time>
      </trkpt>
      <trkpt lat="59.9174639" lon="17.6422337">
        <ele>27.0543</ele>
        <time>2012-04-11T16:59:16Z</time>
      </trkpt>
      <trkpt lat="59.9172229" lon="17.6422383">
        <ele>27.0543</ele>
        <time>2012-04-11T16:59:20Z</time>
      </trkpt>
      <trkpt lat="59.9169022" lon="17.6423153">
        <ele>27.5349</ele>
        <time>2012-04-11T16:59:26Z</time>
      </trkpt>
      <trkpt lat="59.9164993" lon="17.6423715">
        <ele>28.9769</ele>
        <time>2012-04-11T16:59:35Z</time>
      </trkpt>
      <trkpt lat="59.9160487" lon="17.6424143">
        <ele>28.9769</ele>
        <time>2012-04-11T16:59:45Z</time>
      </trkpt>
      <trkpt lat="59.9155616" lon="17.6424467">
        <ele>28.0155</ele>
        <time>2012-04-11T16:59:54Z</time>
      </trkpt>
      <trkpt lat="59.9151965" lon="17.6425904">
        <ele>29.4575</ele>
        <time>2012-04-11T17:00:01Z</time>
      </trkpt>
      <trkpt lat="59.9149702" lon="17.642657">
        <ele>29.4575</ele>
        <time>2012-04-11T17:00:06Z</time>
      </trkpt>
      <trkpt lat="59.914682" lon="17.6427054">
        <ele>30.4188</ele>
        <time>2012-04-11T17:00:12Z</time>
      </trkpt>
      <trkpt lat="59.9141759" lon="17.6428102">
        <ele>32.3416</ele>
        <time>2012-04-11T17:00:23Z</time>
      </trkpt>
      <trkpt lat="59.9138093" lon="17.6428848">
        <ele>33.3029</ele>
        <time>2012-04-11T17:00:31Z</time>
      </trkpt>
      <trkpt lat="59.9134301" lon="17.642954">
        <ele>33.7834</ele>
        <time>2012-04-11T17:00:39Z</time>
      </trkpt>
      <trkpt lat="59.912881" lon="17.6430619">
        <ele>34.2642</ele>
        <time>2012-04-11T17:00:50Z</time>
      </trkpt>
      <trkpt lat="59.9127772" lon="17.6430717">
        <ele>34.2642</ele>
        <time>2012-04-11T17:00:52Z</time>
      </trkpt>
      <trkpt lat="59.9126026" lon="17.6430066">
        <ele>32.8223</ele>
        <time>2012-04-11T17:00:55Z</time>
      </trkpt>
      <trkpt lat="59.9122293" lon="17.6430356">
        <ele>32.3416</ele>
        <time>2012-04-11T17:01:01Z</time>
      </trkpt>
      <trkpt lat="59.9120062" lon="17.6431192">
        <ele>32.8223</ele>
        <time>2012-04-11T17:01:05Z</time>
      </trkpt>
      <trkpt lat="59.9114949" lon="17.643214">
        <ele>33.7834</ele>
        <time>2012-04-11T17:01:15Z</time>
      </trkpt>
      <trkpt lat="59.9110933" lon="17.6433141">
        <ele>33.3029</ele>
        <time>2012-04-11T17:01:23Z</time>
      </trkpt>
      <trkpt lat="59.9105935" lon="17.6434174">
        <ele>31.8607</ele>
        <time>2012-04-11T17:01:32Z</time>
      </trkpt>
      <trkpt lat="59.9104339" lon="17.6435034">
        <ele>32.3416</ele>
        <time>2012-04-11T17:01:35Z</time>
      </trkpt>
      <trkpt lat="59.9101262" lon="17.643567">
        <ele>31.8607</ele>
        <time>2012-04-11T17:01:41Z</time>
      </trkpt>
      <trkpt lat="59.9098278" lon="17.6434883">
        <ele>30.4188</ele>
        <time>2012-04-11T17:01:46Z</time>
      </trkpt>
      <trkpt lat="59.9093764" lon="17.6435686">
        <ele>29.9381</ele>
        <time>2012-04-11T17:01:53Z</time>
      </trkpt>
      <trkpt lat="59.9088333" lon="17.6436386">
        <ele>29.9381</ele>
        <time>2012-04-11T17:02:02Z</time>
      </trkpt>
      <trkpt lat="59.908337" lon="17.6436622">
        <ele>30.4188</ele>
        <time>2012-04-11T17:02:11Z</time>
      </trkpt>
      <trkpt lat="59.9077369" lon="17.6435732">
        <ele>29.9381</ele>
        <time>2012-04-11T17:02:22Z</time>
      </trkpt>
      <trkpt lat="59.9070563" lon="17.6434453">
        <ele>29.9381</ele>
        <time>2012-04-11T17:02:34Z</time>
      </trkpt>
      <trkpt lat="59.9065082" lon="17.643296">
        <ele>28.9769</ele>
        <time>2012-04-11T17:02:43Z</time>
      </trkpt>
      <trkpt lat="59.9059149" lon="17.6430463">
        <ele>28.0155</ele>
        <time>2012-04-11T17:02:52Z</time>
      </trkpt>
      <trkpt lat="59.9055713" lon="17.6428986">
        <ele>28.0155</ele>
        <time>2012-04-11T17:02:57Z</time>
      </trkpt>
      <trkpt lat="59.9053044" lon="17.6428656">
        <ele>28.0155</ele>
        <time>2012-04-11T17:03:01Z</time>
      </trkpt>
      <trkpt lat="59.9047304" lon="17.6425563">
        <ele>27.0543</ele>
        <time>2012-04-11T17:03:10Z</time>
      </trkpt>
      <trkpt lat="59.9042965" lon="17.642283">
        <ele>27.0543</ele>
        <time>2012-04-11T17:03:17Z</time>
      </trkpt>
      <trkpt lat="59.9037822" lon="17.6420006">
        <ele>28.0155</ele>
        <time>2012-04-11T17:03:26Z</time>
      </trkpt>
      <trkpt lat="59.9036718" lon="17.6419504">
        <ele>28.4962</ele>
        <time>2012-04-11T17:03:28Z</time>
      </trkpt>
      <trkpt lat="59.9034631" lon="17.6419206">
        <ele>28.4962</ele>
        <time>2012-04-11T17:03:32Z</time>
      </trkpt>
      <trkpt lat="59.9029668" lon="17.6416147">
        <ele>27.5349</ele>
        <time>2012-04-11T17:03:41Z</time>
      </trkpt>
      <trkpt lat="59.9024861" lon="17.6413391">
        <ele>28.0155</ele>
        <time>2012-04-11T17:03:50Z</time>
      </trkpt>
      <trkpt lat="59.9020233" lon="17.641012">
        <ele>28.0155</ele>
        <time>2012-04-11T17:03:59Z</time>
      </trkpt>
      <trkpt lat="59.9015369" lon="17.6405776">
        <ele>28.0155</ele>
        <time>2012-04-11T17:04:09Z</time>
      </trkpt>
      <trkpt lat="59.9009466" lon="17.640001">
        <ele>28.4962</ele>
        <time>2012-04-11T17:04:21Z</time>
      </trkpt>
      <trkpt lat="59.9004441" lon="17.639486">
        <ele>28.9769</ele>
        <time>2012-04-11T17:04:31Z</time>
      </trkpt>
      <trkpt lat="59.900041" lon="17.6390759">
        <ele>28.9769</ele>
        <time>2012-04-11T17:04:39Z</time>
      </trkpt>
      <trkpt lat="59.899651" lon="17.6386578">
        <ele>29.4575</ele>
        <time>2012-04-11T17:04:47Z</time>
      </trkpt>
      <trkpt lat="59.8992673" lon="17.6382909">
        <ele>29.9381</ele>
        <time>2012-04-11T17:04:56Z</time>
      </trkpt>
      <trkpt lat="59.8988436" lon="17.6379127">
        <ele>30.8995</ele>
        <time>2012-04-11T17:05:07Z</time>
      </trkpt>
      <trkpt lat="59.8985413" lon="17.6376374">
        <ele>30.8995</ele>
        <time>2012-04-11T17:05:15Z</time>
      </trkpt>
      <trkpt lat="59.8982565" lon="17.6373992">
        <ele>31.3801</ele>
        <time>2012-04-11T17:05:22Z</time>
      </trkpt>
      <trkpt lat="59.8979719" lon="17.6371717">
        <ele>31.8607</ele>
        <time>2012-04-11T17:05:29Z</time>
      </trkpt>
      <trkpt lat="59.8977286" lon="17.6370308">
        <ele>33.3029</ele>
        <time>2012-04-11T17:05:35Z</time>
      </trkpt>
      <trkpt lat="59.8976674" lon="17.6370049">
        <ele>33.3029</ele>
        <time>2012-04-11T17:05:37Z</time>
      </trkpt>
      <trkpt lat="59.8974198" lon="17.6367821">
        <ele>33.7834</ele>
        <time>2012-04-11T17:05:45Z</time>
      </trkpt>
      <trkpt lat="59.897392" lon="17.6367516">
        <ele>33.7834</ele>
        <time>2012-04-11T17:05:46Z</time>
      </trkpt>
      <trkpt lat="59.897413" lon="17.6364728">
        <ele>33.3029</ele>
        <time>2012-04-11T17:05:50Z</time>
      </trkpt>
      <trkpt lat="59.8974508" lon="17.6363242">
        <ele>32.8223</ele>
        <time>2012-04-11T17:05:52Z</time>
      </trkpt>
      <trkpt lat="59.8976532" lon="17.635707">
        <ele>31.3801</ele>
        <time>2012-04-11T17:06:00Z</time>
      </trkpt>
      <trkpt lat="59.8976972" lon="17.6355964">
        <ele>30.8995</ele>
        <time>2012-04-11T17:06:02Z</time>
      </trkpt>
      <trkpt lat="59.8978578" lon="17.6352172">
        <ele>30.8995</ele>
        <time>2012-04-11T17:06:09Z</time>
      </trkpt>
      <trkpt lat="59.8980554" lon="17.6348098">
        <ele>30.4188</ele>
        <time>2012-04-11T17:06:16Z</time>
      </trkpt>
      <trkpt lat="59.8981736" lon="17.6345628">
        <ele>30.8995</ele>
        <time>2012-04-11T17:06:21Z</time>
      </trkpt>
      <trkpt lat="59.8983426" lon="17.6344841">
        <ele>30.4188</ele>
        <time>2012-04-11T17:06:25Z</time>
      </trkpt>
      <trkpt lat="59.8986714" lon="17.6345065">
        <ele>28.9769</ele>
        <time>2012-04-11T17:06:30Z</time>
      </trkpt>
      <trkpt lat="59.89906" lon="17.6344545">
        <ele>27.0543</ele>
        <time>2012-04-11T17:06:35Z</time>
      </trkpt>
      <trkpt lat="59.8996588" lon="17.634138">
        <ele>25.1317</ele>
        <time>2012-04-11T17:06:42Z</time>
      </trkpt>
      <trkpt lat="59.9001901" lon="17.633773">
        <ele>24.1703</ele>
        <time>2012-04-11T17:06:48Z</time>
      </trkpt>
      <trkpt lat="59.9006706" lon="17.6331902">
        <ele>23.6896</ele>
        <time>2012-04-11T17:06:54Z</time>
      </trkpt>
      <trkpt lat="59.9010574" lon="17.6325501">
        <ele>25.1317</ele>
        <time>2012-04-11T17:07:00Z</time>
      </trkpt>
      <trkpt lat="59.9012834" lon="17.6319066">
        <ele>25.1317</ele>
        <time>2012-04-11T17:07:05Z</time>
      </trkpt>
      <trkpt lat="59.9013993" lon="17.6313342">
        <ele>25.6123</ele>
        <time>2012-04-11T17:07:09Z</time>
      </trkpt>
      <trkpt lat="59.9014387" lon="17.6304298">
        <ele>25.6123</ele>
        <time>2012-04-11T17:07:15Z</time>
      </trkpt>
      <trkpt lat="59.9013543" lon="17.6290218">
        <ele>26.5736</ele>
        <time>2012-04-11T17:07:24Z</time>
      </trkpt>
      <trkpt lat="59.9012387" lon="17.6281534">
        <ele>26.5736</ele>
        <time>2012-04-11T17:07:30Z</time>
      </trkpt>
      <trkpt lat="59.901008" lon="17.6272642">
        <ele>27.0543</ele>
        <time>2012-04-11T17:07:37Z</time>
      </trkpt>
      <trkpt lat="59.9008559" lon="17.6265468">
        <ele>27.5349</ele>
        <time>2012-04-11T17:07:43Z</time>
      </trkpt>
      <trkpt lat="59.9008289" lon="17.6258156">
        <ele>28.0155</ele>
        <time>2012-04-11T17:07:49Z</time>
      </trkpt>
      <trkpt lat="59.9008709" lon="17.624784">
        <ele>28.9769</ele>
        <time>2012-04-11T17:07:58Z</time>
      </trkpt>
      <trkpt lat="59.9009366" lon="17.624168">
        <ele>27.5349</ele>
        <time>2012-04-11T17:08:03Z</time>
      </trkpt>
      <trkpt lat="59.9010896" lon="17.6232556">
        <ele>26.0929</ele>
        <time>2012-04-11T17:08:09Z</time>
      </trkpt>
      <trkpt lat="59.9014422" lon="17.6217136">
        <ele>25.1317</ele>
        <time>2012-04-11T17:08:19Z</time>
      </trkpt>
      <trkpt lat="59.9017391" lon="17.6206979">
        <ele>25.1317</ele>
        <time>2012-04-11T17:08:26Z</time>
      </trkpt>
      <trkpt lat="59.9021976" lon="17.6195645">
        <ele>25.1317</ele>
        <time>2012-04-11T17:08:35Z</time>
      </trkpt>
      <trkpt lat="59.9027616" lon="17.6180963">
        <ele>26.0929</ele>
        <time>2012-04-11T17:08:47Z</time>
      </trkpt>
      <trkpt lat="59.9031237" lon="17.616939">
        <ele>27.0543</ele>
        <time>2012-04-11T17:08:56Z</time>
      </trkpt>
      <trkpt lat="59.9034984" lon="17.6155711">
        <ele>27.5349</ele>
        <time>2012-04-11T17:09:07Z</time>
      </trkpt>
      <trkpt lat="59.9035858" lon="17.614846">
        <ele>27.0543</ele>
        <time>2012-04-11T17:09:12Z</time>
      </trkpt>
      <trkpt lat="59.9036469" lon="17.6137839">
        <ele>26.5736</ele>
        <time>2012-04-11T17:09:19Z</time>
      </trkpt>
      <trkpt lat="59.9038213" lon="17.612795">
        <ele>27.0543</ele>
        <time>2012-04-11T17:09:26Z</time>
      </trkpt>
      <trkpt lat="59.903967" lon="17.6121205">
        <ele>28.0155</ele>
        <time>2012-04-11T17:09:31Z</time>
      </trkpt>
      <trkpt lat="59.9042095" lon="17.611596">
        <ele>28.4962</ele>
        <time>2012-04-11T17:09:36Z</time>
      </trkpt>
      <trkpt lat="59.9045077" lon="17.6112088">
        <ele>28.9769</ele>
        <time>2012-04-11T17:09:41Z</time>
      </trkpt>
      <trkpt lat="59.9046696" lon="17.6108153">
        <ele>29.9381</ele>
        <time>2012-04-11T17:09:45Z</time>
      </trkpt>
      <trkpt lat="59.9047869" lon="17.6103824">
        <ele>29.9381</ele>
        <time>2012-04-11T17:09:49Z</time>
      </trkpt>
      <trkpt lat="59.904912" lon="17.6102902">
        <ele>29.9381</ele>
        <time>2012-04-11T17:09:51Z</time>
      </trkpt>
      <trkpt lat="59.9057193" lon="17.6099243">
        <ele>30.8995</ele>
        <time>2012-04-11T17:10:02Z</time>
      </trkpt>
      <trkpt lat="59.9061951" lon="17.6096778">
        <ele>30.8995</ele>
        <time>2012-04-11T17:10:08Z</time>
      </trkpt>
      <trkpt lat="59.9070351" lon="17.6092603">
        <ele>29.9381</ele>
        <time>2012-04-11T17:10:18Z</time>
      </trkpt>
      <trkpt lat="59.9078359" lon="17.608867">
        <ele>28.4962</ele>
        <time>2012-04-11T17:10:27Z</time>
      </trkpt>
      <trkpt lat="59.908783" lon="17.6084186">
        <ele>26.0929</ele>
        <time>2012-04-11T17:10:37Z</time>
      </trkpt>
      <trkpt lat="59.9097661" lon="17.6079309">
        <ele>25.1317</ele>
        <time>2012-04-11T17:10:47Z</time>
      </trkpt>
      <trkpt lat="59.9105798" lon="17.6075715">
        <ele>25.6123</ele>
        <time>2012-04-11T17:10:56Z</time>
      </trkpt>
      <trkpt lat="59.9113925" lon="17.6071865">
        <ele>26.5736</ele>
        <time>2012-04-11T17:11:06Z</time>
      </trkpt>
      <trkpt lat="59.912335" lon="17.6067308">
        <ele>27.0543</ele>
        <time>2012-04-11T17:11:18Z</time>
      </trkpt>
      <trkpt lat="59.9130928" lon="17.6063673">
        <ele>28.0155</ele>
        <time>2012-04-11T17:11:28Z</time>
      </trkpt>
      <trkpt lat="59.9139202" lon="17.60597">
        <ele>28.4962</ele>
        <time>2012-04-11T17:11:39Z</time>
      </trkpt>
      <trkpt lat="59.9148415" lon="17.605528">
        <ele>28.4962</ele>
        <time>2012-04-11T17:11:51Z</time>
      </trkpt>
      <trkpt lat="59.9159537" lon="17.604998">
        <ele>28.4962</ele>
        <time>2012-04-11T17:12:05Z</time>
      </trkpt>
      <trkpt lat="59.9169302" lon="17.6045249">
        <ele>28.4962</ele>
        <time>2012-04-11T17:12:17Z</time>
      </trkpt>
      <trkpt lat="59.9179275" lon="17.6040396">
        <ele>28.4962</ele>
        <time>2012-04-11T17:12:29Z</time>
      </trkpt>
      <trkpt lat="59.919094" lon="17.6034736">
        <ele>28.9769</ele>
        <time>2012-04-11T17:12:43Z</time>
      </trkpt>
      <trkpt lat="59.91987" lon="17.6030931">
        <ele>28.4962</ele>
        <time>2012-04-11T17:12:53Z</time>
      </trkpt>
      <trkpt lat="59.9207105" lon="17.6026889">
        <ele>28.4962</ele>
        <time>2012-04-11T17:13:04Z</time>
      </trkpt>
      <trkpt lat="59.9216289" lon="17.6022306">
        <ele>28.4962</ele>
        <time>2012-04-11T17:13:16Z</time>
      </trkpt>
      <trkpt lat="59.9226241" lon="17.6017464">
        <ele>28.4962</ele>
        <time>2012-04-11T17:13:29Z</time>
      </trkpt>
      <trkpt lat="59.9236286" lon="17.6012595">
        <ele>28.9769</ele>
        <time>2012-04-11T17:13:42Z</time>
      </trkpt>
      <trkpt lat="59.9245797" lon="17.600799">
        <ele>28.9769</ele>
        <time>2012-04-11T17:13:54Z</time>
      </trkpt>
      <trkpt lat="59.925394" lon="17.6004055">
        <ele>29.4575</ele>
        <time>2012-04-11T17:14:04Z</time>
      </trkpt>
      <trkpt lat="59.9264423" lon="17.5998966">
        <ele>28.9769</ele>
        <time>2012-04-11T17:14:17Z</time>
      </trkpt>
      <trkpt lat="59.9272976" lon="17.5994814">
        <ele>28.9769</ele>
        <time>2012-04-11T17:14:28Z</time>
      </trkpt>
      <trkpt lat="59.9282953" lon="17.5989908">
        <ele>28.9769</ele>
        <time>2012-04-11T17:14:41Z</time>
      </trkpt>
      <trkpt lat="59.9292107" lon="17.5985438">
        <ele>29.4575</ele>
        <time>2012-04-11T17:14:53Z</time>
      </trkpt>
      <trkpt lat="59.9302144" lon="17.5980588">
        <ele>29.4575</ele>
        <time>2012-04-11T17:15:06Z</time>
      </trkpt>
      <trkpt lat="59.9309611" lon="17.5976994">
        <ele>29.9381</ele>
        <time>2012-04-11T17:15:16Z</time>
      </trkpt>
      <trkpt lat="59.9316555" lon="17.5973631">
        <ele>29.9381</ele>
        <time>2012-04-11T17:15:25Z</time>
      </trkpt>
      <trkpt lat="59.9324419" lon="17.596987">
        <ele>30.4188</ele>
        <time>2012-04-11T17:15:35Z</time>
      </trkpt>
      <trkpt lat="59.9332352" lon="17.5966173">
        <ele>30.4188</ele>
        <time>2012-04-11T17:15:45Z</time>
      </trkpt>
      <trkpt lat="59.9339923" lon="17.5962358">
        <ele>31.3801</ele>
        <time>2012-04-11T17:15:55Z</time>
      </trkpt>
      <trkpt lat="59.934613" lon="17.5959312">
        <ele>31.8607</ele>
        <time>2012-04-11T17:16:04Z</time>
      </trkpt>
      <trkpt lat="59.9354622" lon="17.5955176">
        <ele>33.3029</ele>
        <time>2012-04-11T17:16:17Z</time>
      </trkpt>
      <trkpt lat="59.9361148" lon="17.595204">
        <ele>33.7834</ele>
        <time>2012-04-11T17:16:27Z</time>
      </trkpt>
      <trkpt lat="59.9368391" lon="17.5948503">
        <ele>34.7449</ele>
        <time>2012-04-11T17:16:38Z</time>
      </trkpt>
      <trkpt lat="59.9374585" lon="17.5945538">
        <ele>35.2255</ele>
        <time>2012-04-11T17:16:47Z</time>
      </trkpt>
      <trkpt lat="59.9382051" lon="17.5941942">
        <ele>36.1868</ele>
        <time>2012-04-11T17:16:58Z</time>
      </trkpt>
      <trkpt lat="59.9389597" lon="17.5938211">
        <ele>36.6675</ele>
        <time>2012-04-11T17:17:09Z</time>
      </trkpt>
      <trkpt lat="59.9396528" lon="17.5934854">
        <ele>36.1868</ele>
        <time>2012-04-11T17:17:19Z</time>
      </trkpt>
      <trkpt lat="59.9404075" lon="17.5931216">
        <ele>35.7061</ele>
        <time>2012-04-11T17:17:29Z</time>
      </trkpt>
      <trkpt lat="59.9411448" lon="17.5927645">
        <ele>34.7449</ele>
        <time>2012-04-11T17:17:38Z</time>
      </trkpt>
      <trkpt lat="59.9421163" lon="17.5922962">
        <ele>34.2642</ele>
        <time>2012-04-11T17:17:49Z</time>
      </trkpt>
      <trkpt lat="59.9429637" lon="17.5918839">
        <ele>34.7449</ele>
        <time>2012-04-11T17:17:59Z</time>
      </trkpt>
      <trkpt lat="59.9436382" lon="17.59156">
        <ele>36.1868</ele>
        <time>2012-04-11T17:18:08Z</time>
      </trkpt>
      <trkpt lat="59.9443811" lon="17.591203">
        <ele>37.1481</ele>
        <time>2012-04-11T17:18:19Z</time>
      </trkpt>
      <trkpt lat="59.9451414" lon="17.5908295">
        <ele>37.1481</ele>
        <time>2012-04-11T17:18:30Z</time>
      </trkpt>
      <trkpt lat="59.9459633" lon="17.5904402">
        <ele>36.6675</ele>
        <time>2012-04-11T17:18:41Z</time>
      </trkpt>
      <trkpt lat="59.9466376" lon="17.5901146">
        <ele>34.7449</ele>
        <time>2012-04-11T17:18:49Z</time>
      </trkpt>
      <trkpt lat="59.9474949" lon="17.5896945">
        <ele>32.8223</ele>
        <time>2012-04-11T17:18:58Z</time>
      </trkpt>
      <trkpt lat="59.9485615" lon="17.5891837">
        <ele>32.3416</ele>
        <time>2012-04-11T17:19:09Z</time>
      </trkpt>
      <trkpt lat="59.9493896" lon="17.5887829">
        <ele>32.8223</ele>
        <time>2012-04-11T17:19:18Z</time>
      </trkpt>
      <trkpt lat="59.9503378" lon="17.5883371">
        <ele>33.3029</ele>
        <time>2012-04-11T17:19:29Z</time>
      </trkpt>
      <trkpt lat="59.950978" lon="17.5880289">
        <ele>33.7834</ele>
        <time>2012-04-11T17:19:37Z</time>
      </trkpt>
      <trkpt lat="59.9511365" lon="17.588172">
        <ele>33.3029</ele>
        <time>2012-04-11T17:19:40Z</time>
      </trkpt>
      <trkpt lat="59.9512736" lon="17.5881905">
        <ele>32.8223</ele>
        <time>2012-04-11T17:19:43Z</time>
      </trkpt>
      <trkpt lat="59.9515225" lon="17.5879528">
        <ele>32.8223</ele>
        <time>2012-04-11T17:19:48Z</time>
      </trkpt>
      <trkpt lat="59.9520902" lon="17.5877052">
        <ele>34.2642</ele>
        <time>2012-04-11T17:19:58Z</time>
      </trkpt>
      <trkpt lat="59.9525129" lon="17.5874726">
        <ele>35.7061</ele>
        <time>2012-04-11T17:20:06Z</time>
      </trkpt>
      <trkpt lat="59.9528461" lon="17.5872863">
        <ele>35.7061</ele>
        <time>2012-04-11T17:20:13Z</time>
      </trkpt>
      <trkpt lat="59.9530667" lon="17.587066">
        <ele>38.1094</ele>
        <time>2012-04-11T17:20:18Z</time>
      </trkpt>
      <trkpt lat="59.9533452" lon="17.5868993">
        <ele>40.5128</ele>
        <time>2012-04-11T17:20:24Z</time>
      </trkpt>
      <trkpt lat="59.9533918" lon="17.5868719">
        <ele>40.9934</ele>
        <time>2012-04-11T17:20:25Z</time>
      </trkpt>
      <trkpt lat="59.9536872" lon="17.5867439">
        <ele>42.4354</ele>
        <time>2012-04-11T17:20:31Z</time>
      </trkpt>
      <trkpt lat="59.9538903" lon="17.5867627">
        <ele>42.4354</ele>
        <time>2012-04-11T17:20:35Z</time>
      </trkpt>
      <trkpt lat="59.9542657" lon="17.5866341">
        <ele>41.9547</ele>
        <time>2012-04-11T17:20:42Z</time>
      </trkpt>
      <trkpt lat="59.9547194" lon="17.5864987">
        <ele>42.4354</ele>
        <time>2012-04-11T17:20:51Z</time>
      </trkpt>
      <trkpt lat="59.9550984" lon="17.5865292">
        <ele>40.9934</ele>
        <time>2012-04-11T17:20:58Z</time>
      </trkpt>
      <trkpt lat="59.9553099" lon="17.5865782">
        <ele>40.5128</ele>
        <time>2012-04-11T17:21:01Z</time>
      </trkpt>
      <trkpt lat="59.9555535" lon="17.5864664">
        <ele>41.474</ele>
        <time>2012-04-11T17:21:05Z</time>
      </trkpt>
      <trkpt lat="59.9556287" lon="17.5862979">
        <ele>41.474</ele>
        <time>2012-04-11T17:21:07Z</time>
      </trkpt>
      <trkpt lat="59.9557163" lon="17.5860242">
        <ele>41.9547</ele>
        <time>2012-04-11T17:21:10Z</time>
      </trkpt>
      <trkpt lat="59.9559231" lon="17.5857234">
        <ele>42.916</ele>
        <time>2012-04-11T17:21:15Z</time>
      </trkpt>
      <trkpt lat="59.9560281" lon="17.5856659">
        <ele>42.916</ele>
        <time>2012-04-11T17:21:17Z</time>
      </trkpt>
      <trkpt lat="59.9565482" lon="17.5854255">
        <ele>42.4354</ele>
        <time>2012-04-11T17:21:26Z</time>
      </trkpt>
      <trkpt lat="59.956948" lon="17.5852334">
        <ele>41.9547</ele>
        <time>2012-04-11T17:21:32Z</time>
      </trkpt>
      <trkpt lat="59.9572463" lon="17.5852132">
        <ele>40.9934</ele>
        <time>2012-04-11T17:21:36Z</time>
      </trkpt>
      <trkpt lat="59.9576831" lon="17.5850657">
        <ele>38.5901</ele>
        <time>2012-04-11T17:21:41Z</time>
      </trkpt>
      <trkpt lat="59.9586025" lon="17.5846925">
        <ele>35.7061</ele>
        <time>2012-04-11T17:21:51Z</time>
      </trkpt>
      <trkpt lat="59.9591585" lon="17.58446">
        <ele>32.8223</ele>
        <time>2012-04-11T17:21:57Z</time>
      </trkpt>
      <trkpt lat="59.9596056" lon="17.5842802">
        <ele>32.8223</ele>
        <time>2012-04-11T17:22:02Z</time>
      </trkpt>
      <trkpt lat="59.9600365" lon="17.5839788">
        <ele>32.3416</ele>
        <time>2012-04-11T17:22:08Z</time>
      </trkpt>
      <trkpt lat="59.9604825" lon="17.5837615">
        <ele>32.3416</ele>
        <time>2012-04-11T17:22:14Z</time>
      </trkpt>
      <trkpt lat="59.9613382" lon="17.5833849">
        <ele>31.8607</ele>
        <time>2012-04-11T17:22:25Z</time>
      </trkpt>
      <trkpt lat="59.9621808" lon="17.5829945">
        <ele>31.8607</ele>
        <time>2012-04-11T17:22:36Z</time>
      </trkpt>
      <trkpt lat="59.9623901" lon="17.5829208">
        <ele>31.8607</ele>
        <time>2012-04-11T17:22:39Z</time>
      </trkpt>
      <trkpt lat="59.9625654" lon="17.5827355">
        <ele>31.8607</ele>
        <time>2012-04-11T17:22:42Z</time>
      </trkpt>
      <trkpt lat="59.9629839" lon="17.5825056">
        <ele>30.8995</ele>
        <time>2012-04-11T17:22:48Z</time>
      </trkpt>
      <trkpt lat="59.9637033" lon="17.5821586">
        <ele>29.9381</ele>
        <time>2012-04-11T17:22:57Z</time>
      </trkpt>
      <trkpt lat="59.9647052" lon="17.5816792">
        <ele>29.4575</ele>
        <time>2012-04-11T17:23:09Z</time>
      </trkpt>
      <trkpt lat="59.9653869" lon="17.5813592">
        <ele>30.4188</ele>
        <time>2012-04-11T17:23:18Z</time>
      </trkpt>
      <trkpt lat="59.9659226" lon="17.5811308">
        <ele>31.3801</ele>
        <time>2012-04-11T17:23:26Z</time>
      </trkpt>
      <trkpt lat="59.9665551" lon="17.5808536">
        <ele>32.8223</ele>
        <time>2012-04-11T17:23:36Z</time>
      </trkpt>
      <trkpt lat="59.9671913" lon="17.5805718">
        <ele>33.7834</ele>
        <time>2012-04-11T17:23:46Z</time>
      </trkpt>
      <trkpt lat="59.9680149" lon="17.5802019">
        <ele>34.2642</ele>
        <time>2012-04-11T17:23:58Z</time>
      </trkpt>
      <trkpt lat="59.9688928" lon="17.5797957">
        <ele>34.7449</ele>
        <time>2012-04-11T17:24:10Z</time>
      </trkpt>
      <trkpt lat="59.9697454" lon="17.5794141">
        <ele>34.7449</ele>
        <time>2012-04-11T17:24:21Z</time>
      </trkpt>
      <trkpt lat="59.9703151" lon="17.5791577">
        <ele>34.7449</ele>
        <time>2012-04-11T17:24:28Z</time>
      </trkpt>
      <trkpt lat="59.9716305" lon="17.5785562">
        <ele>34.7449</ele>
        <time>2012-04-11T17:24:44Z</time>
      </trkpt>
      <trkpt lat="59.9723175" lon="17.5782506">
        <ele>34.2642</ele>
        <time>2012-04-11T17:24:52Z</time>
      </trkpt>
      <trkpt lat="59.9736047" lon="17.5776697">
        <ele>34.2642</ele>
        <time>2012-04-11T17:25:07Z</time>
      </trkpt>
      <trkpt lat="59.9746579" lon="17.5772564">
        <ele>32.3416</ele>
        <time>2012-04-11T17:25:19Z</time>
      </trkpt>
      <trkpt lat="59.9755562" lon="17.5769841">
        <ele>31.3801</ele>
        <time>2012-04-11T17:25:29Z</time>
      </trkpt>
      <trkpt lat="59.9762213" lon="17.5767152">
        <ele>31.8607</ele>
        <time>2012-04-11T17:25:37Z</time>
      </trkpt>
      <trkpt lat="59.9769065" lon="17.5763721">
        <ele>32.8223</ele>
        <time>2012-04-11T17:25:46Z</time>
      </trkpt>
      <trkpt lat="59.9776001" lon="17.5759283">
        <ele>33.7834</ele>
        <time>2012-04-11T17:25:56Z</time>
      </trkpt>
      <trkpt lat="59.9784435" lon="17.575382">
        <ele>34.2642</ele>
        <time>2012-04-11T17:26:08Z</time>
      </trkpt>
      <trkpt lat="59.9791904" lon="17.5750087">
        <ele>34.7449</ele>
        <time>2012-04-11T17:26:18Z</time>
      </trkpt>
      <trkpt lat="59.979837" lon="17.5746965">
        <ele>35.2255</ele>
        <time>2012-04-11T17:26:27Z</time>
      </trkpt>
      <trkpt lat="59.9805946" lon="17.5743306">
        <ele>35.7061</ele>
        <time>2012-04-11T17:26:38Z</time>
      </trkpt>
      <trkpt lat="59.981365" lon="17.5739634">
        <ele>35.7061</ele>
        <time>2012-04-11T17:26:49Z</time>
      </trkpt>
      <trkpt lat="59.9823516" lon="17.5734952">
        <ele>36.1868</ele>
        <time>2012-04-11T17:27:03Z</time>
      </trkpt>
      <trkpt lat="59.9829337" lon="17.5732047">
        <ele>36.1868</ele>
        <time>2012-04-11T17:27:11Z</time>
      </trkpt>
      <trkpt lat="59.9836185" lon="17.5728691">
        <ele>35.7061</ele>
        <time>2012-04-11T17:27:20Z</time>
      </trkpt>
      <trkpt lat="59.9844436" lon="17.5724322">
        <ele>36.6675</ele>
        <time>2012-04-11T17:27:31Z</time>
      </trkpt>
      <trkpt lat="59.9849538" lon="17.5721381">
        <ele>37.6287</ele>
        <time>2012-04-11T17:27:39Z</time>
      </trkpt>
      <trkpt lat="59.9854385" lon="17.5718039">
        <ele>39.0707</ele>
        <time>2012-04-11T17:27:48Z</time>
      </trkpt>
      <trkpt lat="59.9859217" lon="17.57145">
        <ele>40.0321</ele>
        <time>2012-04-11T17:27:57Z</time>
      </trkpt>
      <trkpt lat="59.9865142" lon="17.5709884">
        <ele>41.474</ele>
        <time>2012-04-11T17:28:08Z</time>
      </trkpt>
      <trkpt lat="59.9870222" lon="17.5706042">
        <ele>42.4354</ele>
        <time>2012-04-11T17:28:17Z</time>
      </trkpt>
      <trkpt lat="59.9876681" lon="17.5701365">
        <ele>44.358</ele>
        <time>2012-04-11T17:28:28Z</time>
      </trkpt>
      <trkpt lat="59.9882606" lon="17.5697504">
        <ele>44.358</ele>
        <time>2012-04-11T17:28:37Z</time>
      </trkpt>
      <trkpt lat="59.9888411" lon="17.5694371">
        <ele>43.3966</ele>
        <time>2012-04-11T17:28:45Z</time>
      </trkpt>
      <trkpt lat="59.9894865" lon="17.5691306">
        <ele>41.474</ele>
        <time>2012-04-11T17:28:53Z</time>
      </trkpt>
      <trkpt lat="59.9901303" lon="17.568901">
        <ele>39.5513</ele>
        <time>2012-04-11T17:29:00Z</time>
      </trkpt>
      <trkpt lat="59.991202" lon="17.568626">
        <ele>37.1481</ele>
        <time>2012-04-11T17:29:11Z</time>
      </trkpt>
      <trkpt lat="59.9921308" lon="17.568387">
        <ele>36.6675</ele>
        <time>2012-04-11T17:29:21Z</time>
      </trkpt>
      <trkpt lat="59.9929094" lon="17.5681561">
        <ele>36.1868</ele>
        <time>2012-04-11T17:29:30Z</time>
      </trkpt>
      <trkpt lat="59.9935036" lon="17.567946">
        <ele>36.1868</ele>
        <time>2012-04-11T17:29:37Z</time>
      </trkpt>
      <trkpt lat="59.9942923" lon="17.5676269">
        <ele>35.2255</ele>
        <time>2012-04-11T17:29:46Z</time>
      </trkpt>
      <trkpt lat="59.9953684" lon="17.5671284">
        <ele>34.2642</ele>
        <time>2012-04-11T17:29:58Z</time>
      </trkpt>
      <trkpt lat="59.9965086" lon="17.5665879">
        <ele>34.7449</ele>
        <time>2012-04-11T17:30:11Z</time>
      </trkpt>
      <trkpt lat="59.9974927" lon="17.5661174">
        <ele>35.7061</ele>
        <time>2012-04-11T17:30:23Z</time>
      </trkpt>
      <trkpt lat="59.9985225" lon="17.5656329">
        <ele>36.1868</ele>
        <time>2012-04-11T17:30:36Z</time>
      </trkpt>
      <trkpt lat="59.9992463" lon="17.5652955">
        <ele>36.1868</ele>
        <time>2012-04-11T17:30:45Z</time>
      </trkpt>
      <trkpt lat="59.9999891" lon="17.5649508">
        <ele>36.1868</ele>
        <time>2012-04-11T17:30:54Z</time>
      </trkpt>
      <trkpt lat="60.0011426" lon="17.5644234">
        <ele>37.1481</ele>
        <time>2012-04-11T17:31:08Z</time>
      </trkpt>
      <trkpt lat="60.0018341" lon="17.5640986">
        <ele>37.1481</ele>
        <time>2012-04-11T17:31:17Z</time>
      </trkpt>
      <trkpt lat="60.0024832" lon="17.5637965">
        <ele>37.6287</ele>
        <time>2012-04-11T17:31:26Z</time>
      </trkpt>
      <trkpt lat="60.0033349" lon="17.5633899">
        <ele>36.6675</ele>
        <time>2012-04-11T17:31:37Z</time>
      </trkpt>
      <trkpt lat="60.004321" lon="17.562928">
        <ele>36.6675</ele>
        <time>2012-04-11T17:31:49Z</time>
      </trkpt>
      <trkpt lat="60.0052043" lon="17.5625096">
        <ele>37.6287</ele>
        <time>2012-04-11T17:32:00Z</time>
      </trkpt>
      <trkpt lat="60.0057427" lon="17.5622581">
        <ele>38.1094</ele>
        <time>2012-04-11T17:32:07Z</time>
      </trkpt>
      <trkpt lat="60.0065122" lon="17.5619052">
        <ele>37.6287</ele>
        <time>2012-04-11T17:32:17Z</time>
      </trkpt>
      <trkpt lat="60.007327" lon="17.5615374">
        <ele>36.6675</ele>
        <time>2012-04-11T17:32:27Z</time>
      </trkpt>
      <trkpt lat="60.0082429" lon="17.5611252">
        <ele>36.6675</ele>
        <time>2012-04-11T17:32:38Z</time>
      </trkpt>
      <trkpt lat="60.0092436" lon="17.5606698">
        <ele>36.1868</ele>
        <time>2012-04-11T17:32:50Z</time>
      </trkpt>
      <trkpt lat="60.009973" lon="17.5603372">
        <ele>36.1868</ele>
        <time>2012-04-11T17:32:59Z</time>
      </trkpt>
      <trkpt lat="60.011003" lon="17.5598716">
        <ele>36.6675</ele>
        <time>2012-04-11T17:33:12Z</time>
      </trkpt>
      <trkpt lat="60.0118737" lon="17.5594786">
        <ele>37.1481</ele>
        <time>2012-04-11T17:33:23Z</time>
      </trkpt>
      <trkpt lat="60.0127402" lon="17.5590811">
        <ele>38.1094</ele>
        <time>2012-04-11T17:33:34Z</time>
      </trkpt>
      <trkpt lat="60.013306" lon="17.5588185">
        <ele>38.1094</ele>
        <time>2012-04-11T17:33:41Z</time>
      </trkpt>
      <trkpt lat="60.0141602" lon="17.5584289">
        <ele>38.5901</ele>
        <time>2012-04-11T17:33:52Z</time>
      </trkpt>
      <trkpt lat="60.014847" lon="17.5581004">
        <ele>38.5901</ele>
        <time>2012-04-11T17:34:01Z</time>
      </trkpt>
      <trkpt lat="60.0153501" lon="17.5578716">
        <ele>39.0707</ele>
        <time>2012-04-11T17:34:08Z</time>
      </trkpt>
      <trkpt lat="60.0162271" lon="17.5574706">
        <ele>39.5513</ele>
        <time>2012-04-11T17:34:20Z</time>
      </trkpt>
      <trkpt lat="60.0168317" lon="17.5571894">
        <ele>40.0321</ele>
        <time>2012-04-11T17:34:28Z</time>
      </trkpt>
      <trkpt lat="60.0174048" lon="17.5568317">
        <ele>40.9934</ele>
        <time>2012-04-11T17:34:36Z</time>
      </trkpt>
      <trkpt lat="60.0176029" lon="17.5568535">
        <ele>40.9934</ele>
        <time>2012-04-11T17:34:39Z</time>
      </trkpt>
      <trkpt lat="60.0178315" lon="17.557063">
        <ele>41.474</ele>
        <time>2012-04-11T17:34:43Z</time>
      </trkpt>
      <trkpt lat="60.0180187" lon="17.5569494">
        <ele>41.9547</ele>
        <time>2012-04-11T17:34:46Z</time>
      </trkpt>
      <trkpt lat="60.0181339" lon="17.5567921">
        <ele>41.9547</ele>
        <time>2012-04-11T17:34:48Z</time>
      </trkpt>
      <trkpt lat="60.0181934" lon="17.5567119">
        <ele>41.9547</ele>
        <time>2012-04-11T17:34:49Z</time>
      </trkpt>
      <trkpt lat="60.018314" lon="17.5565764">
        <ele>41.474</ele>
        <time>2012-04-11T17:34:51Z</time>
      </trkpt>
      <trkpt lat="60.0187887" lon="17.5563202">
        <ele>41.474</ele>
        <time>2012-04-11T17:34:58Z</time>
      </trkpt>
      <trkpt lat="60.0195064" lon="17.555985">
        <ele>41.474</ele>
        <time>2012-04-11T17:35:08Z</time>
      </trkpt>
      <trkpt lat="60.0203681" lon="17.555582">
        <ele>41.474</ele>
        <time>2012-04-11T17:35:20Z</time>
      </trkpt>
      <trkpt lat="60.0210193" lon="17.5552914">
        <ele>40.9934</ele>
        <time>2012-04-11T17:35:29Z</time>
      </trkpt>
      <trkpt lat="60.021875" lon="17.5549078">
        <ele>40.0321</ele>
        <time>2012-04-11T17:35:40Z</time>
      </trkpt>
      <trkpt lat="60.0227784" lon="17.5544958">
        <ele>39.5513</ele>
        <time>2012-04-11T17:35:51Z</time>
      </trkpt>
      <trkpt lat="60.0234205" lon="17.554208">
        <ele>39.5513</ele>
        <time>2012-04-11T17:35:59Z</time>
      </trkpt>
      <trkpt lat="60.0241646" lon="17.553858">
        <ele>40.0321</ele>
        <time>2012-04-11T17:36:09Z</time>
      </trkpt>
      <trkpt lat="60.0248649" lon="17.5535275">
        <ele>40.9934</ele>
        <time>2012-04-11T17:36:19Z</time>
      </trkpt>
      <trkpt lat="60.025284" lon="17.5533376">
        <ele>42.4354</ele>
        <time>2012-04-11T17:36:26Z</time>
      </trkpt>
      <trkpt lat="60.0255824" lon="17.5532275">
        <ele>43.3966</ele>
        <time>2012-04-11T17:36:32Z</time>
      </trkpt>
      <trkpt lat="60.0257233" lon="17.5531809">
        <ele>43.8773</ele>
        <time>2012-04-11T17:36:35Z</time>
      </trkpt>
      <trkpt lat="60.0258165" lon="17.5531917">
        <ele>44.358</ele>
        <time>2012-04-11T17:36:37Z</time>
      </trkpt>
      <trkpt lat="60.0259522" lon="17.5531908">
        <ele>44.8386</ele>
        <time>2012-04-11T17:36:40Z</time>
      </trkpt>
      <trkpt lat="60.0261433" lon="17.5532801">
        <ele>45.3192</ele>
        <time>2012-04-11T17:36:45Z</time>
      </trkpt>
      <trkpt lat="60.0262117" lon="17.5534489">
        <ele>45.7999</ele>
        <time>2012-04-11T17:36:49Z</time>
      </trkpt>
      <trkpt lat="60.0262756" lon="17.553814">
        <ele>45.7999</ele>
        <time>2012-04-11T17:36:55Z</time>
      </trkpt>
      <trkpt lat="60.0262905" lon="17.5542517">
        <ele>46.7612</ele>
        <time>2012-04-11T17:37:01Z</time>
      </trkpt>
      <trkpt lat="60.0262988" lon="17.5546718">
        <ele>47.2418</ele>
        <time>2012-04-11T17:37:06Z</time>
      </trkpt>
      <trkpt lat="60.0262683" lon="17.5554198">
        <ele>46.2806</ele>
        <time>2012-04-11T17:37:14Z</time>
      </trkpt>
      <trkpt lat="60.0261846" lon="17.5560011">
        <ele>46.2806</ele>
        <time>2012-04-11T17:37:20Z</time>
      </trkpt>
      <trkpt lat="60.0260479" lon="17.5564838">
        <ele>45.7999</ele>
        <time>2012-04-11T17:37:25Z</time>
      </trkpt>
      <trkpt lat="60.0258909" lon="17.5568195">
        <ele>44.8386</ele>
        <time>2012-04-11T17:37:29Z</time>
      </trkpt>
      <trkpt lat="60.0254331" lon="17.5574129">
        <ele>44.358</ele>
        <time>2012-04-11T17:37:38Z</time>
      </trkpt>
      <trkpt lat="60.0249859" lon="17.558045">
        <ele>44.358</ele>
        <time>2012-04-11T17:37:47Z</time>
      </trkpt>
      <trkpt lat="60.0246685" lon="17.5585717">
        <ele>44.8386</ele>
        <time>2012-04-11T17:37:54Z</time>
      </trkpt>
      <trkpt lat="60.0244023" lon="17.5591646">
        <ele>45.3192</ele>
        <time>2012-04-11T17:38:01Z</time>
      </trkpt>
      <trkpt lat="60.0241185" lon="17.5599437">
        <ele>45.7999</ele>
        <time>2012-04-11T17:38:09Z</time>
      </trkpt>
      <trkpt lat="60.0239294" lon="17.5607154">
        <ele>45.7999</ele>
        <time>2012-04-11T17:38:16Z</time>
      </trkpt>
      <trkpt lat="60.023892" lon="17.560948">
        <ele>45.7999</ele>
        <time>2012-04-11T17:38:18Z</time>
      </trkpt>
      <trkpt lat="60.0237947" lon="17.5619585">
        <ele>45.3192</ele>
        <time>2012-04-11T17:38:27Z</time>
      </trkpt>
      <trkpt lat="60.0237292" lon="17.5627503">
        <ele>44.358</ele>
        <time>2012-04-11T17:38:34Z</time>
      </trkpt>
      <trkpt lat="60.0236854" lon="17.5636717">
        <ele>43.8773</ele>
        <time>2012-04-11T17:38:41Z</time>
      </trkpt>
      <trkpt lat="60.0237024" lon="17.5645762">
        <ele>43.8773</ele>
        <time>2012-04-11T17:38:48Z</time>
      </trkpt>
      <trkpt lat="60.0238186" lon="17.5652246">
        <ele>45.3192</ele>
        <time>2012-04-11T17:38:54Z</time>
      </trkpt>
      <trkpt lat="60.0238496" lon="17.5653112">
        <ele>45.3192</ele>
        <time>2012-04-11T17:38:55Z</time>
      </trkpt>
      <trkpt lat="60.0240055" lon="17.5656485">
        <ele>45.7999</ele>
        <time>2012-04-11T17:39:00Z</time>
      </trkpt>
      <trkpt lat="60.0242877" lon="17.5661295">
        <ele>45.3192</ele>
        <time>2012-04-11T17:39:07Z</time>
      </trkpt>
      <trkpt lat="60.0245459" lon="17.5667214">
        <ele>45.3192</ele>
        <time>2012-04-11T17:39:13Z</time>
      </trkpt>
      <trkpt lat="60.0246106" lon="17.5669316">
        <ele>45.3192</ele>
        <time>2012-04-11T17:39:15Z</time>
      </trkpt>
      <trkpt lat="60.0247188" lon="17.5673732">
        <ele>45.3192</ele>
        <time>2012-04-11T17:39:19Z</time>
      </trkpt>
      <trkpt lat="60.0248466" lon="17.5680441">
        <ele>45.7999</ele>
        <time>2012-04-11T17:39:25Z</time>
      </trkpt>
      <trkpt lat="60.0249349" lon="17.568531">
        <ele>46.2806</ele>
        <time>2012-04-11T17:39:29Z</time>
      </trkpt>
      <trkpt lat="60.0250888" lon="17.5690694">
        <ele>44.8386</ele>
        <time>2012-04-11T17:39:33Z</time>
      </trkpt>
      <trkpt lat="60.0254842" lon="17.5699252">
        <ele>42.916</ele>
        <time>2012-04-11T17:39:40Z</time>
      </trkpt>
      <trkpt lat="60.0256448" lon="17.570515">
        <ele>41.9547</ele>
        <time>2012-04-11T17:39:44Z</time>
      </trkpt>
      <trkpt lat="60.0256567" lon="17.5710052">
        <ele>41.9547</ele>
        <time>2012-04-11T17:39:47Z</time>
      </trkpt>
      <trkpt lat="60.0256181" lon="17.5713041">
        <ele>41.474</ele>
        <time>2012-04-11T17:39:49Z</time>
      </trkpt>
      <trkpt lat="60.0255026" lon="17.572133">
        <ele>38.5901</ele>
        <time>2012-04-11T17:39:54Z</time>
      </trkpt>
      <trkpt lat="60.0254628" lon="17.5727348">
        <ele>37.6287</ele>
        <time>2012-04-11T17:39:57Z</time>
      </trkpt>
      <trkpt lat="60.0253213" lon="17.5733491">
        <ele>36.1868</ele>
        <time>2012-04-11T17:40:01Z</time>
      </trkpt>
      <trkpt lat="60.0251561" lon="17.5735747">
        <ele>36.1868</ele>
        <time>2012-04-11T17:40:04Z</time>
      </trkpt>
      <trkpt lat="60.0250393" lon="17.5736477">
        <ele>36.1868</ele>
        <time>2012-04-11T17:40:06Z</time>
      </trkpt>
      <trkpt lat="60.0249271" lon="17.5737109">
        <ele>36.1868</ele>
        <time>2012-04-11T17:40:08Z</time>
      </trkpt>
      <trkpt lat="60.0248305" lon="17.5737508">
        <ele>35.7061</ele>
        <time>2012-04-11T17:40:10Z</time>
      </trkpt>
      <trkpt lat="60.0246282" lon="17.573853">
        <ele>30.8995</ele>
        <time>2012-04-11T17:40:14Z</time>
      </trkpt>
      <trkpt lat="60.0243509" lon="17.5741257">
        <ele>33.7834</ele>
        <time>2012-04-11T17:40:19Z</time>
      </trkpt>
      <trkpt lat="60.0239822" lon="17.5743004">
        <ele>33.7834</ele>
        <time>2012-04-11T17:40:25Z</time>
      </trkpt>
      <trkpt lat="60.0237667" lon="17.5743667">
        <ele>31.3801</ele>
        <time>2012-04-11T17:40:29Z</time>
      </trkpt>
      <trkpt lat="60.0235305" lon="17.574333">
        <ele>28.9769</ele>
        <time>2012-04-11T17:40:33Z</time>
      </trkpt>
      <trkpt lat="60.0230309" lon="17.5741904">
        <ele>26.5736</ele>
        <time>2012-04-11T17:40:40Z</time>
      </trkpt>
      <trkpt lat="60.0226116" lon="17.5742153">
        <ele>26.5736</ele>
        <time>2012-04-11T17:40:46Z</time>
      </trkpt>
      <trkpt lat="60.0223382" lon="17.5742788">
        <ele>29.4575</ele>
        <time>2012-04-11T17:40:50Z</time>
      </trkpt>
      <trkpt lat="60.0219253" lon="17.5744571">
        <ele>31.8607</ele>
        <time>2012-04-11T17:40:56Z</time>
      </trkpt>
      <trkpt lat="60.0215762" lon="17.5746785">
        <ele>33.3029</ele>
        <time>2012-04-11T17:41:01Z</time>
      </trkpt>
      <trkpt lat="60.0212275" lon="17.5748059">
        <ele>33.3029</ele>
        <time>2012-04-11T17:41:06Z</time>
      </trkpt>
      <trkpt lat="60.0208762" lon="17.5749462">
        <ele>30.4188</ele>
        <time>2012-04-11T17:41:11Z</time>
      </trkpt>
      <trkpt lat="60.0206737" lon="17.5750985">
        <ele>31.8607</ele>
        <time>2012-04-11T17:41:14Z</time>
      </trkpt>
      <trkpt lat="60.0202541" lon="17.5756569">
        <ele>36.6675</ele>
        <time>2012-04-11T17:41:20Z</time>
      </trkpt>
      <trkpt lat="60.0201546" lon="17.5758655">
        <ele>36.1868</ele>
        <time>2012-04-11T17:41:22Z</time>
      </trkpt>
      <trkpt lat="60.0200183" lon="17.5765205">
        <ele>38.5901</ele>
        <time>2012-04-11T17:41:27Z</time>
      </trkpt>
      <trkpt lat="60.0199603" lon="17.5775036">
        <ele>37.6287</ele>
        <time>2012-04-11T17:41:35Z</time>
      </trkpt>
      <trkpt lat="60.0198231" lon="17.5784351">
        <ele>38.5901</ele>
        <time>2012-04-11T17:41:43Z</time>
      </trkpt>
      <trkpt lat="60.0196692" lon="17.5789614">
        <ele>44.358</ele>
        <time>2012-04-11T17:41:48Z</time>
      </trkpt>
      <trkpt lat="60.019519" lon="17.579261">
        <ele>46.2806</ele>
        <time>2012-04-11T17:41:52Z</time>
      </trkpt>
      <trkpt lat="60.0193325" lon="17.5794424">
        <ele>45.7999</ele>
        <time>2012-04-11T17:41:57Z</time>
      </trkpt>
      <trkpt lat="60.0191195" lon="17.5794727">
        <ele>43.3966</ele>
        <time>2012-04-11T17:42:04Z</time>
      </trkpt>
      <trkpt lat="60.0190198" lon="17.5795637">
        <ele>42.916</ele>
        <time>2012-04-11T17:42:07Z</time>
      </trkpt>
      <trkpt lat="60.0189478" lon="17.5799246">
        <ele>42.4354</ele>
        <time>2012-04-11T17:42:11Z</time>
      </trkpt>
      <trkpt lat="60.0188083" lon="17.5807459">
        <ele>41.9547</ele>
        <time>2012-04-11T17:42:19Z</time>
      </trkpt>
      <trkpt lat="60.0185636" lon="17.581752">
        <ele>41.474</ele>
        <time>2012-04-11T17:42:29Z</time>
      </trkpt>
      <trkpt lat="60.0182262" lon="17.5827754">
        <ele>40.9934</ele>
        <time>2012-04-11T17:42:40Z</time>
      </trkpt>
      <trkpt lat="60.0178824" lon="17.5835079">
        <ele>40.5128</ele>
        <time>2012-04-11T17:42:49Z</time>
      </trkpt>
      <trkpt lat="60.0174469" lon="17.5843182">
        <ele>42.4354</ele>
        <time>2012-04-11T17:43:00Z</time>
      </trkpt>
      <trkpt lat="60.0169773" lon="17.5849786">
        <ele>42.916</ele>
        <time>2012-04-11T17:43:11Z</time>
      </trkpt>
      <trkpt lat="60.0165053" lon="17.5854691">
        <ele>43.3966</ele>
        <time>2012-04-11T17:43:21Z</time>
      </trkpt>
      <trkpt lat="60.016" lon="17.5858546">
        <ele>44.358</ele>
        <time>2012-04-11T17:43:31Z</time>
      </trkpt>
      <trkpt lat="60.0155261" lon="17.5861016">
        <ele>44.358</ele>
        <time>2012-04-11T17:43:40Z</time>
      </trkpt>
      <trkpt lat="60.0149601" lon="17.5863265">
        <ele>42.4354</ele>
        <time>2012-04-11T17:43:50Z</time>
      </trkpt>
      <trkpt lat="60.0142565" lon="17.5866033">
        <ele>42.4354</ele>
        <time>2012-04-11T17:44:02Z</time>
      </trkpt>
      <trkpt lat="60.0136446" lon="17.5868611">
        <ele>42.916</ele>
        <time>2012-04-11T17:44:13Z</time>
      </trkpt>
      <trkpt lat="60.013024" lon="17.5872489">
        <ele>42.916</ele>
        <time>2012-04-11T17:44:24Z</time>
      </trkpt>
      <trkpt lat="60.0125244" lon="17.5877091">
        <ele>42.916</ele>
        <time>2012-04-11T17:44:33Z</time>
      </trkpt>
      <trkpt lat="60.0121197" lon="17.5882029">
        <ele>43.8773</ele>
        <time>2012-04-11T17:44:41Z</time>
      </trkpt>
      <trkpt lat="60.0117126" lon="17.5888303">
        <ele>43.8773</ele>
        <time>2012-04-11T17:44:50Z</time>
      </trkpt>
      <trkpt lat="60.0112618" lon="17.5897028">
        <ele>45.3192</ele>
        <time>2012-04-11T17:45:01Z</time>
      </trkpt>
      <trkpt lat="60.0109137" lon="17.5906146">
        <ele>45.3192</ele>
        <time>2012-04-11T17:45:11Z</time>
      </trkpt>
      <trkpt lat="60.0106539" lon="17.5914833">
        <ele>45.3192</ele>
        <time>2012-04-11T17:45:20Z</time>
      </trkpt>
      <trkpt lat="60.0103989" lon="17.5926144">
        <ele>45.3192</ele>
        <time>2012-04-11T17:45:31Z</time>
      </trkpt>
      <trkpt lat="60.0101602" lon="17.5938744">
        <ele>45.7999</ele>
        <time>2012-04-11T17:45:43Z</time>
      </trkpt>
      <trkpt lat="60.0099593" lon="17.5949804">
        <ele>46.2806</ele>
        <time>2012-04-11T17:45:54Z</time>
      </trkpt>
      <trkpt lat="60.0097445" lon="17.5961748">
        <ele>46.7612</ele>
        <time>2012-04-11T17:46:05Z</time>
      </trkpt>
      <trkpt lat="60.0095365" lon="17.5973805">
        <ele>47.2418</ele>
        <time>2012-04-11T17:46:16Z</time>
      </trkpt>
      <trkpt lat="60.0093583" lon="17.5984202">
        <ele>47.7225</ele>
        <time>2012-04-11T17:46:26Z</time>
      </trkpt>
      <trkpt lat="60.009145" lon="17.5997028">
        <ele>47.7225</ele>
        <time>2012-04-11T17:46:38Z</time>
      </trkpt>
      <trkpt lat="60.0089116" lon="17.6011799">
        <ele>46.7612</ele>
        <time>2012-04-11T17:46:51Z</time>
      </trkpt>
      <trkpt lat="60.00871" lon="17.6025293">
        <ele>45.3192</ele>
        <time>2012-04-11T17:47:02Z</time>
      </trkpt>
      <trkpt lat="60.008545" lon="17.603644">
        <ele>43.8773</ele>
        <time>2012-04-11T17:47:11Z</time>
      </trkpt>
      <trkpt lat="60.0083491" lon="17.6049919">
        <ele>42.916</ele>
        <time>2012-04-11T17:47:21Z</time>
      </trkpt>
      <trkpt lat="60.0081459" lon="17.6064785">
        <ele>42.4354</ele>
        <time>2012-04-11T17:47:32Z</time>
      </trkpt>
      <trkpt lat="60.0079804" lon="17.6078911">
        <ele>41.9547</ele>
        <time>2012-04-11T17:47:43Z</time>
      </trkpt>
      <trkpt lat="60.0078382" lon="17.6094772">
        <ele>41.9547</ele>
        <time>2012-04-11T17:47:56Z</time>
      </trkpt>
      <trkpt lat="60.0077499" lon="17.6108869">
        <ele>41.9547</ele>
        <time>2012-04-11T17:48:08Z</time>
      </trkpt>
      <trkpt lat="60.007696" lon="17.6123622">
        <ele>41.9547</ele>
        <time>2012-04-11T17:48:20Z</time>
      </trkpt>
      <trkpt lat="60.0076804" lon="17.6136773">
        <ele>42.4354</ele>
        <time>2012-04-11T17:48:31Z</time>
      </trkpt>
      <trkpt lat="60.0077026" lon="17.6148097">
        <ele>42.916</ele>
        <time>2012-04-11T17:48:41Z</time>
      </trkpt>
      <trkpt lat="60.0077785" lon="17.6159134">
        <ele>42.916</ele>
        <time>2012-04-11T17:48:51Z</time>
      </trkpt>
      <trkpt lat="60.0079073" lon="17.6168962">
        <ele>42.916</ele>
        <time>2012-04-11T17:49:00Z</time>
      </trkpt>
      <trkpt lat="60.0081019" lon="17.6178828">
        <ele>42.916</ele>
        <time>2012-04-11T17:49:09Z</time>
      </trkpt>
      <trkpt lat="60.0083901" lon="17.6189534">
        <ele>42.916</ele>
        <time>2012-04-11T17:49:19Z</time>
      </trkpt>
      <trkpt lat="60.008735" lon="17.619892">
        <ele>42.916</ele>
        <time>2012-04-11T17:49:28Z</time>
      </trkpt>
      <trkpt lat="60.009141" lon="17.6207518">
        <ele>42.4354</ele>
        <time>2012-04-11T17:49:37Z</time>
      </trkpt>
      <trkpt lat="60.009571" lon="17.6214514">
        <ele>41.474</ele>
        <time>2012-04-11T17:49:45Z</time>
      </trkpt>
      <trkpt lat="60.0100675" lon="17.6220701">
        <ele>40.5128</ele>
        <time>2012-04-11T17:49:53Z</time>
      </trkpt>
      <trkpt lat="60.010644" lon="17.6226705">
        <ele>39.0707</ele>
        <time>2012-04-11T17:50:02Z</time>
      </trkpt>
      <trkpt lat="60.0111139" lon="17.6232284">
        <ele>38.1094</ele>
        <time>2012-04-11T17:50:09Z</time>
      </trkpt>
      <trkpt lat="60.0115527" lon="17.6239827">
        <ele>37.6287</ele>
        <time>2012-04-11T17:50:16Z</time>
      </trkpt>
      <trkpt lat="60.0119168" lon="17.6248807">
        <ele>37.1481</ele>
        <time>2012-04-11T17:50:23Z</time>
      </trkpt>
      <trkpt lat="60.0123045" lon="17.6258748">
        <ele>38.1094</ele>
        <time>2012-04-11T17:50:31Z</time>
      </trkpt>
      <trkpt lat="60.0126875" lon="17.6267639">
        <ele>40.0321</ele>
        <time>2012-04-11T17:50:39Z</time>
      </trkpt>
      <trkpt lat="60.0131459" lon="17.6276502">
        <ele>40.9934</ele>
        <time>2012-04-11T17:50:48Z</time>
      </trkpt>
      <trkpt lat="60.0137816" lon="17.628652">
        <ele>40.9934</ele>
        <time>2012-04-11T17:50:59Z</time>
      </trkpt>
      <trkpt lat="60.0144187" lon="17.6294757">
        <ele>40.5128</ele>
        <time>2012-04-11T17:51:09Z</time>
      </trkpt>
      <trkpt lat="60.0149365" lon="17.6302631">
        <ele>40.5128</ele>
        <time>2012-04-11T17:51:18Z</time>
      </trkpt>
      <trkpt lat="60.0153601" lon="17.6311201">
        <ele>40.9934</ele>
        <time>2012-04-11T17:51:27Z</time>
      </trkpt>
      <trkpt lat="60.0158427" lon="17.6322427">
        <ele>40.9934</ele>
        <time>2012-04-11T17:51:38Z</time>
      </trkpt>
      <trkpt lat="60.0163062" lon="17.6331286">
        <ele>40.5128</ele>
        <time>2012-04-11T17:51:47Z</time>
      </trkpt>
      <trkpt lat="60.016756" lon="17.6341326">
        <ele>40.0321</ele>
        <time>2012-04-11T17:51:56Z</time>
      </trkpt>
      <trkpt lat="60.0170428" lon="17.6351178">
        <ele>40.5128</ele>
        <time>2012-04-11T17:52:04Z</time>
      </trkpt>
      <trkpt lat="60.0174512" lon="17.6365526">
        <ele>39.5513</ele>
        <time>2012-04-11T17:52:16Z</time>
      </trkpt>
      <trkpt lat="60.0177856" lon="17.6377452">
        <ele>39.0707</ele>
        <time>2012-04-11T17:52:26Z</time>
      </trkpt>
      <trkpt lat="60.0179552" lon="17.6387469">
        <ele>39.0707</ele>
        <time>2012-04-11T17:52:34Z</time>
      </trkpt>
      <trkpt lat="60.0180608" lon="17.639847">
        <ele>39.0707</ele>
        <time>2012-04-11T17:52:43Z</time>
      </trkpt>
      <trkpt lat="60.0182002" lon="17.6413112">
        <ele>39.0707</ele>
        <time>2012-04-11T17:52:55Z</time>
      </trkpt>
      <trkpt lat="60.018293" lon="17.6424155">
        <ele>39.5513</ele>
        <time>2012-04-11T17:53:04Z</time>
      </trkpt>
      <trkpt lat="60.0183198" lon="17.6433234">
        <ele>39.5513</ele>
        <time>2012-04-11T17:53:12Z</time>
      </trkpt>
      <trkpt lat="60.0183002" lon="17.644632">
        <ele>39.0707</ele>
        <time>2012-04-11T17:53:23Z</time>
      </trkpt>
      <trkpt lat="60.0183042" lon="17.6455085">
        <ele>38.1094</ele>
        <time>2012-04-11T17:53:31Z</time>
      </trkpt>
      <trkpt lat="60.0183057" lon="17.6465079">
        <ele>37.1481</ele>
        <time>2012-04-11T17:53:40Z</time>
      </trkpt>
      <trkpt lat="60.0183129" lon="17.6478536">
        <ele>36.6675</ele>
        <time>2012-04-11T17:53:51Z</time>
      </trkpt>
      <trkpt lat="60.0183234" lon="17.6493494">
        <ele>36.1868</ele>
        <time>2012-04-11T17:54:03Z</time>
      </trkpt>
      <trkpt lat="60.0183643" lon="17.6507563">
        <ele>35.2255</ele>
        <time>2012-04-11T17:54:14Z</time>
      </trkpt>
      <trkpt lat="60.0184519" lon="17.6520931">
        <ele>34.2642</ele>
        <time>2012-04-11T17:54:24Z</time>
      </trkpt>
      <trkpt lat="60.018586" lon="17.6538307">
        <ele>33.3029</ele>
        <time>2012-04-11T17:54:37Z</time>
      </trkpt>
      <trkpt lat="60.0187135" lon="17.6555025">
        <ele>33.3029</ele>
        <time>2012-04-11T17:54:50Z</time>
      </trkpt>
      <trkpt lat="60.0188494" lon="17.6572555">
        <ele>33.7834</ele>
        <time>2012-04-11T17:55:04Z</time>
      </trkpt>
      <trkpt lat="60.0189534" lon="17.6585913">
        <ele>33.7834</ele>
        <time>2012-04-11T17:55:15Z</time>
      </trkpt>
      <trkpt lat="60.0190558" lon="17.659934">
        <ele>33.7834</ele>
        <time>2012-04-11T17:55:26Z</time>
      </trkpt>
      <trkpt lat="60.0191702" lon="17.6614233">
        <ele>33.3029</ele>
        <time>2012-04-11T17:55:38Z</time>
      </trkpt>
      <trkpt lat="60.0193139" lon="17.6627256">
        <ele>33.3029</ele>
        <time>2012-04-11T17:55:49Z</time>
      </trkpt>
      <trkpt lat="60.0195365" lon="17.6639082">
        <ele>33.3029</ele>
        <time>2012-04-11T17:55:59Z</time>
      </trkpt>
      <trkpt lat="60.0198111" lon="17.6649209">
        <ele>32.8223</ele>
        <time>2012-04-11T17:56:08Z</time>
      </trkpt>
      <trkpt lat="60.0202325" lon="17.6661191">
        <ele>32.8223</ele>
        <time>2012-04-11T17:56:19Z</time>
      </trkpt>
      <trkpt lat="60.0206469" lon="17.667253">
        <ele>32.3416</ele>
        <time>2012-04-11T17:56:29Z</time>
      </trkpt>
      <trkpt lat="60.0210895" lon="17.6684974">
        <ele>31.3801</ele>
        <time>2012-04-11T17:56:40Z</time>
      </trkpt>
      <trkpt lat="60.0213538" lon="17.6694655">
        <ele>31.8607</ele>
        <time>2012-04-11T17:56:48Z</time>
      </trkpt>
      <trkpt lat="60.0215765" lon="17.670604">
        <ele>32.3416</ele>
        <time>2012-04-11T17:56:57Z</time>
      </trkpt>
      <trkpt lat="60.0217097" lon="17.6717626">
        <ele>32.8223</ele>
        <time>2012-04-11T17:57:06Z</time>
      </trkpt>
      <trkpt lat="60.0217688" lon="17.6730665">
        <ele>33.3029</ele>
        <time>2012-04-11T17:57:16Z</time>
      </trkpt>
      <trkpt lat="60.0217632" lon="17.6743356">
        <ele>33.3029</ele>
        <time>2012-04-11T17:57:26Z</time>
      </trkpt>
      <trkpt lat="60.0217925" lon="17.6755603">
        <ele>32.8223</ele>
        <time>2012-04-11T17:57:36Z</time>
      </trkpt>
      <trkpt lat="60.0219032" lon="17.6767472">
        <ele>33.3029</ele>
        <time>2012-04-11T17:57:46Z</time>
      </trkpt>
      <trkpt lat="60.0221418" lon="17.6782601">
        <ele>33.3029</ele>
        <time>2012-04-11T17:57:59Z</time>
      </trkpt>
      <trkpt lat="60.0223501" lon="17.6795776">
        <ele>33.7834</ele>
        <time>2012-04-11T17:58:11Z</time>
      </trkpt>
      <trkpt lat="60.0225105" lon="17.6808486">
        <ele>33.7834</ele>
        <time>2012-04-11T17:58:23Z</time>
      </trkpt>
      <trkpt lat="60.0226033" lon="17.6819759">
        <ele>34.2642</ele>
        <time>2012-04-11T17:58:34Z</time>
      </trkpt>
      <trkpt lat="60.0226552" lon="17.6832208">
        <ele>34.7449</ele>
        <time>2012-04-11T17:58:46Z</time>
      </trkpt>
      <trkpt lat="60.0226647" lon="17.6843415">
        <ele>35.7061</ele>
        <time>2012-04-11T17:58:57Z</time>
      </trkpt>
      <trkpt lat="60.0226654" lon="17.6847953">
        <ele>35.7061</ele>
        <time>2012-04-11T17:59:02Z</time>
      </trkpt>
      <trkpt lat="60.0226389" lon="17.6854484">
        <ele>35.7061</ele>
        <time>2012-04-11T17:59:10Z</time>
      </trkpt>
      <trkpt lat="60.0226143" lon="17.6859314">
        <ele>36.1868</ele>
        <time>2012-04-11T17:59:15Z</time>
      </trkpt>
      <trkpt lat="60.0225784" lon="17.6866324">
        <ele>36.1868</ele>
        <time>2012-04-11T17:59:23Z</time>
      </trkpt>
      <trkpt lat="60.0225385" lon="17.6874663">
        <ele>36.6675</ele>
        <time>2012-04-11T17:59:32Z</time>
      </trkpt>
      <trkpt lat="60.0224884" lon="17.6885008">
        <ele>36.1868</ele>
        <time>2012-04-11T17:59:42Z</time>
      </trkpt>
      <trkpt lat="60.0224324" lon="17.6896817">
        <ele>35.7061</ele>
        <time>2012-04-11T17:59:53Z</time>
      </trkpt>
      <trkpt lat="60.0223912" lon="17.6905938">
        <ele>35.2255</ele>
        <time>2012-04-11T18:00:01Z</time>
      </trkpt>
      <trkpt lat="60.0223225" lon="17.6920186">
        <ele>35.2255</ele>
        <time>2012-04-11T18:00:13Z</time>
      </trkpt>
      <trkpt lat="60.0222288" lon="17.6932425">
        <ele>34.7449</ele>
        <time>2012-04-11T18:00:23Z</time>
      </trkpt>
      <trkpt lat="60.0220521" lon="17.694437">
        <ele>34.2642</ele>
        <time>2012-04-11T18:00:33Z</time>
      </trkpt>
      <trkpt lat="60.0218294" lon="17.6954378">
        <ele>34.2642</ele>
        <time>2012-04-11T18:00:42Z</time>
      </trkpt>
      <trkpt lat="60.0215813" lon="17.6963755">
        <ele>34.7449</ele>
        <time>2012-04-11T18:00:52Z</time>
      </trkpt>
      <trkpt lat="60.0213891" lon="17.6971057">
        <ele>36.6675</ele>
        <time>2012-04-11T18:01:01Z</time>
      </trkpt>
      <trkpt lat="60.0212285" lon="17.6977166">
        <ele>38.1094</ele>
        <time>2012-04-11T18:01:09Z</time>
      </trkpt>
      <trkpt lat="60.021" lon="17.6985817">
        <ele>39.0707</ele>
        <time>2012-04-11T18:01:21Z</time>
      </trkpt>
      <trkpt lat="60.020814" lon="17.6992936">
        <ele>38.5901</ele>
        <time>2012-04-11T18:01:30Z</time>
      </trkpt>
      <trkpt lat="60.020595" lon="17.7001364">
        <ele>38.1094</ele>
        <time>2012-04-11T18:01:39Z</time>
      </trkpt>
      <trkpt lat="60.0202873" lon="17.7012324">
        <ele>37.6287</ele>
        <time>2012-04-11T18:01:50Z</time>
      </trkpt>
      <trkpt lat="60.0199552" lon="17.702102">
        <ele>36.6675</ele>
        <time>2012-04-11T18:01:59Z</time>
      </trkpt>
      <trkpt lat="60.0195406" lon="17.7028968">
        <ele>35.7061</ele>
        <time>2012-04-11T18:02:08Z</time>
      </trkpt>
      <trkpt lat="60.0190938" lon="17.7036404">
        <ele>35.7061</ele>
        <time>2012-04-11T18:02:17Z</time>
      </trkpt>
      <trkpt lat="60.0187085" lon="17.7044534">
        <ele>35.2255</ele>
        <time>2012-04-11T18:02:26Z</time>
      </trkpt>
      <trkpt lat="60.0184804" lon="17.705122">
        <ele>35.7061</ele>
        <time>2012-04-11T18:02:33Z</time>
      </trkpt>
      <trkpt lat="60.0183214" lon="17.7057324">
        <ele>36.6675</ele>
        <time>2012-04-11T18:02:40Z</time>
      </trkpt>
      <trkpt lat="60.0181809" lon="17.7064726">
        <ele>37.1481</ele>
        <time>2012-04-11T18:02:49Z</time>
      </trkpt>
      <trkpt lat="60.018082" lon="17.7073087">
        <ele>37.1481</ele>
        <time>2012-04-11T18:02:58Z</time>
      </trkpt>
      <trkpt lat="60.018013" lon="17.7083442">
        <ele>36.1868</ele>
        <time>2012-04-11T18:03:08Z</time>
      </trkpt>
      <trkpt lat="60.017941" lon="17.7094884">
        <ele>35.7061</ele>
        <time>2012-04-11T18:03:18Z</time>
      </trkpt>
      <trkpt lat="60.0178804" lon="17.7104256">
        <ele>35.7061</ele>
        <time>2012-04-11T18:03:26Z</time>
      </trkpt>
      <trkpt lat="60.0177994" lon="17.7117295">
        <ele>34.7449</ele>
        <time>2012-04-11T18:03:37Z</time>
      </trkpt>
      <trkpt lat="60.0176992" lon="17.7132876">
        <ele>32.8223</ele>
        <time>2012-04-11T18:03:49Z</time>
      </trkpt>
      <trkpt lat="60.0176238" lon="17.714207">
        <ele>31.3801</ele>
        <time>2012-04-11T18:03:56Z</time>
      </trkpt>
      <trkpt lat="60.0174926" lon="17.7150361">
        <ele>30.4188</ele>
        <time>2012-04-11T18:04:03Z</time>
      </trkpt>
      <trkpt lat="60.0172113" lon="17.7162516">
        <ele>29.9381</ele>
        <time>2012-04-11T18:04:14Z</time>
      </trkpt>
      <trkpt lat="60.0170658" lon="17.7169526">
        <ele>30.4188</ele>
        <time>2012-04-11T18:04:21Z</time>
      </trkpt>
      <trkpt lat="60.0169531" lon="17.7178123">
        <ele>31.8607</ele>
        <time>2012-04-11T18:04:30Z</time>
      </trkpt>
      <trkpt lat="60.0169166" lon="17.7184123">
        <ele>32.8223</ele>
        <time>2012-04-11T18:04:37Z</time>
      </trkpt>
      <trkpt lat="60.0168927" lon="17.7189599">
        <ele>34.2642</ele>
        <time>2012-04-11T18:04:44Z</time>
      </trkpt>
      <trkpt lat="60.0168668" lon="17.7195464">
        <ele>35.2255</ele>
        <time>2012-04-11T18:04:52Z</time>
      </trkpt>
      <trkpt lat="60.0168886" lon="17.7198777">
        <ele>36.1868</ele>
        <time>2012-04-11T18:04:57Z</time>
      </trkpt>
      <trkpt lat="60.0168948" lon="17.7201578">
        <ele>36.1868</ele>
        <time>2012-04-11T18:05:01Z</time>
      </trkpt>
      <trkpt lat="60.0169013" lon="17.7204293">
        <ele>37.1481</ele>
        <time>2012-04-11T18:05:05Z</time>
      </trkpt>
      <trkpt lat="60.0170564" lon="17.7206412">
        <ele>37.1481</ele>
        <time>2012-04-11T18:05:10Z</time>
      </trkpt>
      <trkpt lat="60.0171889" lon="17.720651">
        <ele>36.6675</ele>
        <time>2012-04-11T18:05:13Z</time>
      </trkpt>
      <trkpt lat="60.01755" lon="17.720667">
        <ele>36.1868</ele>
        <time>2012-04-11T18:05:20Z</time>
      </trkpt>
      <trkpt lat="60.0180687" lon="17.7207837">
        <ele>35.7061</ele>
        <time>2012-04-11T18:05:29Z</time>
      </trkpt>
      <trkpt lat="60.0186501" lon="17.720942">
        <ele>35.7061</ele>
        <time>2012-04-11T18:05:38Z</time>
      </trkpt>
      <trkpt lat="60.0193394" lon="17.7211318">
        <ele>37.1481</ele>
        <time>2012-04-11T18:05:49Z</time>
      </trkpt>
      <trkpt lat="60.0198479" lon="17.7212662">
        <ele>37.6287</ele>
        <time>2012-04-11T18:05:57Z</time>
      </trkpt>
      <trkpt lat="60.0204028" lon="17.7213971">
        <ele>38.5901</ele>
        <time>2012-04-11T18:06:06Z</time>
      </trkpt>
      <trkpt lat="60.0209082" lon="17.7215141">
        <ele>38.1094</ele>
        <time>2012-04-11T18:06:14Z</time>
      </trkpt>
      <trkpt lat="60.0215174" lon="17.7216727">
        <ele>37.6287</ele>
        <time>2012-04-11T18:06:23Z</time>
      </trkpt>
      <trkpt lat="60.0216534" lon="17.7217314">
        <ele>37.6287</ele>
        <time>2012-04-11T18:06:25Z</time>
      </trkpt>
      <trkpt lat="60.0219458" lon="17.7221144">
        <ele>37.6287</ele>
        <time>2012-04-11T18:06:30Z</time>
      </trkpt>
      <trkpt lat="60.0220553" lon="17.7226043">
        <ele>37.6287</ele>
        <time>2012-04-11T18:06:34Z</time>
      </trkpt>
      <trkpt lat="60.0221821" lon="17.723874">
        <ele>35.7061</ele>
        <time>2012-04-11T18:06:43Z</time>
      </trkpt>
      <trkpt lat="60.0223158" lon="17.7253585">
        <ele>34.2642</ele>
        <time>2012-04-11T18:06:53Z</time>
      </trkpt>
      <trkpt lat="60.0223909" lon="17.726659">
        <ele>34.7449</ele>
        <time>2012-04-11T18:07:02Z</time>
      </trkpt>
      <trkpt lat="60.0224045" lon="17.7276761">
        <ele>35.2255</ele>
        <time>2012-04-11T18:07:10Z</time>
      </trkpt>
      <trkpt lat="60.0223536" lon="17.7285572">
        <ele>32.3416</ele>
        <time>2012-04-11T18:07:16Z</time>
      </trkpt>
      <trkpt lat="60.0223453" lon="17.7294576">
        <ele>30.4188</ele>
        <time>2012-04-11T18:07:21Z</time>
      </trkpt>
      <trkpt lat="60.0223981" lon="17.7299945">
        <ele>28.4962</ele>
        <time>2012-04-11T18:07:24Z</time>
      </trkpt>
      <trkpt lat="60.0226742" lon="17.7308657">
        <ele>31.3801</ele>
        <time>2012-04-11T18:07:30Z</time>
      </trkpt>
      <trkpt lat="60.022947" lon="17.7314596">
        <ele>33.3029</ele>
        <time>2012-04-11T18:07:36Z</time>
      </trkpt>
      <trkpt lat="60.0232404" lon="17.73223">
        <ele>35.7061</ele>
        <time>2012-04-11T18:07:44Z</time>
      </trkpt>
      <trkpt lat="60.0233167" lon="17.732809">
        <ele>35.7061</ele>
        <time>2012-04-11T18:07:49Z</time>
      </trkpt>
      <trkpt lat="60.0232989" lon="17.7333054">
        <ele>35.2255</ele>
        <time>2012-04-11T18:07:53Z</time>
      </trkpt>
      <trkpt lat="60.0231228" lon="17.7346162">
        <ele>33.7834</ele>
        <time>2012-04-11T18:08:04Z</time>
      </trkpt>
      <trkpt lat="60.0230128" lon="17.7357926">
        <ele>32.3416</ele>
        <time>2012-04-11T18:08:14Z</time>
      </trkpt>
      <trkpt lat="60.0229301" lon="17.7368174">
        <ele>32.3416</ele>
        <time>2012-04-11T18:08:23Z</time>
      </trkpt>
      <trkpt lat="60.0228473" lon="17.7378417">
        <ele>33.3029</ele>
        <time>2012-04-11T18:08:33Z</time>
      </trkpt>
      <trkpt lat="60.0227877" lon="17.7385991">
        <ele>34.7449</ele>
        <time>2012-04-11T18:08:42Z</time>
      </trkpt>
      <trkpt lat="60.0227122" lon="17.73955">
        <ele>36.1868</ele>
        <time>2012-04-11T18:08:54Z</time>
      </trkpt>
      <trkpt lat="60.0226561" lon="17.7402728">
        <ele>37.6287</ele>
        <time>2012-04-11T18:09:04Z</time>
      </trkpt>
      <trkpt lat="60.0226064" lon="17.7409558">
        <ele>39.0707</ele>
        <time>2012-04-11T18:09:14Z</time>
      </trkpt>
      <trkpt lat="60.022567" lon="17.7411394">
        <ele>39.5513</ele>
        <time>2012-04-11T18:09:17Z</time>
      </trkpt>
      <trkpt lat="60.0224334" lon="17.7411017">
        <ele>39.5513</ele>
        <time>2012-04-11T18:09:21Z</time>
      </trkpt>
      <trkpt lat="60.0221146" lon="17.7405981">
        <ele>39.0707</ele>
        <time>2012-04-11T18:09:30Z</time>
      </trkpt>
      <trkpt lat="60.0217758" lon="17.7402391">
        <ele>38.5901</ele>
        <time>2012-04-11T18:09:37Z</time>
      </trkpt>
      <trkpt lat="60.0212858" lon="17.7396997">
        <ele>38.5901</ele>
        <time>2012-04-11T18:09:46Z</time>
      </trkpt>
      <trkpt lat="60.0208079" lon="17.7390953">
        <ele>38.1094</ele>
        <time>2012-04-11T18:09:55Z</time>
      </trkpt>
      <trkpt lat="60.0203925" lon="17.7382919">
        <ele>37.6287</ele>
        <time>2012-04-11T18:10:04Z</time>
      </trkpt>
      <trkpt lat="60.0201654" lon="17.7375387">
        <ele>38.1094</ele>
        <time>2012-04-11T18:10:11Z</time>
      </trkpt>
      <trkpt lat="60.0198973" lon="17.7367482">
        <ele>37.6287</ele>
        <time>2012-04-11T18:10:19Z</time>
      </trkpt>
      <trkpt lat="60.0196144" lon="17.7363774">
        <ele>37.6287</ele>
        <time>2012-04-11T18:10:25Z</time>
      </trkpt>
      <trkpt lat="60.019302" lon="17.7359019">
        <ele>37.6287</ele>
        <time>2012-04-11T18:10:32Z</time>
      </trkpt>
      <trkpt lat="60.0189865" lon="17.7354268">
        <ele>37.6287</ele>
        <time>2012-04-11T18:10:39Z</time>
      </trkpt>
      <trkpt lat="60.0185778" lon="17.7349413">
        <ele>37.6287</ele>
        <time>2012-04-11T18:10:47Z</time>
      </trkpt>
      <trkpt lat="60.0183794" lon="17.734743">
        <ele>38.1094</ele>
        <time>2012-04-11T18:10:51Z</time>
      </trkpt>
      <trkpt lat="60.0179402" lon="17.7342928">
        <ele>37.1481</ele>
        <time>2012-04-11T18:11:00Z</time>
      </trkpt>
      <trkpt lat="60.0175893" lon="17.7340372">
        <ele>35.2255</ele>
        <time>2012-04-11T18:11:06Z</time>
      </trkpt>
      <trkpt lat="60.0171215" lon="17.73384">
        <ele>33.7834</ele>
        <time>2012-04-11T18:11:14Z</time>
      </trkpt>
      <trkpt lat="60.0165897" lon="17.7336665">
        <ele>32.8223</ele>
        <time>2012-04-11T18:11:23Z</time>
      </trkpt>
      <trkpt lat="60.0158712" lon="17.7334557">
        <ele>31.8607</ele>
        <time>2012-04-11T18:11:35Z</time>
      </trkpt>
      <trkpt lat="60.0153064" lon="17.7333252">
        <ele>30.8995</ele>
        <time>2012-04-11T18:11:44Z</time>
      </trkpt>
      <trkpt lat="60.0147833" lon="17.7330547">
        <ele>29.9381</ele>
        <time>2012-04-11T18:11:52Z</time>
      </trkpt>
      <trkpt lat="60.014359" lon="17.7327203">
        <ele>30.4188</ele>
        <time>2012-04-11T18:11:59Z</time>
      </trkpt>
      <trkpt lat="60.0142395" lon="17.7326715">
        <ele>30.4188</ele>
        <time>2012-04-11T18:12:01Z</time>
      </trkpt>
      <trkpt lat="60.0138178" lon="17.7324487">
        <ele>29.9381</ele>
        <time>2012-04-11T18:12:08Z</time>
      </trkpt>
      <trkpt lat="60.0133897" lon="17.7323571">
        <ele>30.8995</ele>
        <time>2012-04-11T18:12:15Z</time>
      </trkpt>
      <trkpt lat="60.0130411" lon="17.7323658">
        <ele>31.8607</ele>
        <time>2012-04-11T18:12:22Z</time>
      </trkpt>
      <trkpt lat="60.0125901" lon="17.7324854">
        <ele>33.3029</ele>
        <time>2012-04-11T18:12:32Z</time>
      </trkpt>
      <trkpt lat="60.0122" lon="17.7326186">
        <ele>34.2642</ele>
        <time>2012-04-11T18:12:41Z</time>
      </trkpt>
      <trkpt lat="60.0119023" lon="17.7327236">
        <ele>34.2642</ele>
        <time>2012-04-11T18:12:48Z</time>
      </trkpt>
      <trkpt lat="60.0118157" lon="17.7327457">
        <ele>34.2642</ele>
        <time>2012-04-11T18:12:50Z</time>
      </trkpt>
      <trkpt lat="60.0113924" lon="17.7326757">
        <ele>34.2642</ele>
        <time>2012-04-11T18:12:59Z</time>
      </trkpt>
      <trkpt lat="60.0110582" lon="17.73253">
        <ele>34.7449</ele>
        <time>2012-04-11T18:13:06Z</time>
      </trkpt>
      <trkpt lat="60.0106667" lon="17.7322135">
        <ele>34.7449</ele>
        <time>2012-04-11T18:13:14Z</time>
      </trkpt>
      <trkpt lat="60.0102829" lon="17.7317106">
        <ele>34.2642</ele>
        <time>2012-04-11T18:13:22Z</time>
      </trkpt>
      <trkpt lat="60.0097297" lon="17.7309487">
        <ele>33.7834</ele>
        <time>2012-04-11T18:13:33Z</time>
      </trkpt>
      <trkpt lat="60.0092216" lon="17.7303813">
        <ele>33.7834</ele>
        <time>2012-04-11T18:13:42Z</time>
      </trkpt>
      <trkpt lat="60.0086865" lon="17.7300248">
        <ele>34.2642</ele>
        <time>2012-04-11T18:13:51Z</time>
      </trkpt>
      <trkpt lat="60.0083461" lon="17.7298963">
        <ele>35.2255</ele>
        <time>2012-04-11T18:13:57Z</time>
      </trkpt>
      <trkpt lat="60.0078788" lon="17.7298586">
        <ele>36.1868</ele>
        <time>2012-04-11T18:14:06Z</time>
      </trkpt>
      <trkpt lat="60.0074907" lon="17.7299209">
        <ele>35.7061</ele>
        <time>2012-04-11T18:14:14Z</time>
      </trkpt>
      <trkpt lat="60.0071089" lon="17.7300824">
        <ele>36.1868</ele>
        <time>2012-04-11T18:14:23Z</time>
      </trkpt>
      <trkpt lat="60.0067504" lon="17.7303299">
        <ele>34.7449</ele>
        <time>2012-04-11T18:14:33Z</time>
      </trkpt>
      <trkpt lat="60.0064305" lon="17.7306">
        <ele>35.7061</ele>
        <time>2012-04-11T18:14:42Z</time>
      </trkpt>
      <trkpt lat="60.0060623" lon="17.7309408">
        <ele>34.7449</ele>
        <time>2012-04-11T18:14:52Z</time>
      </trkpt>
      <trkpt lat="60.005665" lon="17.7312971">
        <ele>35.2255</ele>
        <time>2012-04-11T18:15:02Z</time>
      </trkpt>
      <trkpt lat="60.0052795" lon="17.7316161">
        <ele>37.1481</ele>
        <time>2012-04-11T18:15:12Z</time>
      </trkpt>
      <trkpt lat="60.0052405" lon="17.7316432">
        <ele>38.1094</ele>
        <time>2012-04-11T18:15:13Z</time>
      </trkpt>
      <trkpt lat="60.0050795" lon="17.7316461">
        <ele>39.5513</ele>
        <time>2012-04-11T18:15:18Z</time>
      </trkpt>
      <trkpt lat="60.0049796" lon="17.7315008">
        <ele>40.0321</ele>
        <time>2012-04-11T18:15:24Z</time>
      </trkpt>
      <trkpt lat="60.0048204" lon="17.7309715">
        <ele>39.5513</ele>
        <time>2012-04-11T18:15:31Z</time>
      </trkpt>
      <trkpt lat="60.004524" lon="17.7299626">
        <ele>38.5901</ele>
        <time>2012-04-11T18:15:42Z</time>
      </trkpt>
      <trkpt lat="60.0044026" lon="17.7295446">
        <ele>38.1094</ele>
        <time>2012-04-11T18:15:47Z</time>
      </trkpt>
      <trkpt lat="60.0042415" lon="17.7292166">
        <ele>38.1094</ele>
        <time>2012-04-11T18:15:52Z</time>
      </trkpt>
      <trkpt lat="60.0042138" lon="17.7291324">
        <ele>37.6287</ele>
        <time>2012-04-11T18:15:53Z</time>
      </trkpt>
      <trkpt lat="60.0040052" lon="17.728804">
        <ele>37.1481</ele>
        <time>2012-04-11T18:15:58Z</time>
      </trkpt>
      <trkpt lat="60.003842" lon="17.728908">
        <ele>36.6675</ele>
        <time>2012-04-11T18:16:01Z</time>
      </trkpt>
      <trkpt lat="60.0037943" lon="17.7289735">
        <ele>36.6675</ele>
        <time>2012-04-11T18:16:02Z</time>
      </trkpt>
      <trkpt lat="60.003372" lon="17.7296862">
        <ele>37.6287</ele>
        <time>2012-04-11T18:16:12Z</time>
      </trkpt>
      <trkpt lat="60.0031291" lon="17.730123">
        <ele>38.5901</ele>
        <time>2012-04-11T18:16:19Z</time>
      </trkpt>
      <trkpt lat="60.0026932" lon="17.7309173">
        <ele>40.5128</ele>
        <time>2012-04-11T18:16:32Z</time>
      </trkpt>
      <trkpt lat="60.0024936" lon="17.7314705">
        <ele>40.9934</ele>
        <time>2012-04-11T18:16:40Z</time>
      </trkpt>
      <trkpt lat="60.0023109" lon="17.7321409">
        <ele>41.474</ele>
        <time>2012-04-11T18:16:49Z</time>
      </trkpt>
      <trkpt lat="60.0022507" lon="17.7324389">
        <ele>41.9547</ele>
        <time>2012-04-11T18:16:53Z</time>
      </trkpt>
      <trkpt lat="60.0022139" lon="17.7327522">
        <ele>41.9547</ele>
        <time>2012-04-11T18:16:58Z</time>
      </trkpt>
      <trkpt lat="60.0022313" lon="17.7332427">
        <ele>42.4354</ele>
        <time>2012-04-11T18:17:06Z</time>
      </trkpt>
      <trkpt lat="60.0022377" lon="17.733669">
        <ele>43.3966</ele>
        <time>2012-04-11T18:17:13Z</time>
      </trkpt>
      <trkpt lat="60.0022041" lon="17.7339718">
        <ele>41.9547</ele>
        <time>2012-04-11T18:17:19Z</time>
      </trkpt>
      <trkpt lat="60.0021428" lon="17.7343681">
        <ele>40.9934</ele>
        <time>2012-04-11T18:17:25Z</time>
      </trkpt>
      <trkpt lat="60.0020122" lon="17.7349588">
        <ele>44.8386</ele>
        <time>2012-04-11T18:17:34Z</time>
      </trkpt>
      <trkpt lat="60.0018642" lon="17.7353883">
        <ele>46.2806</ele>
        <time>2012-04-11T18:17:42Z</time>
      </trkpt>
      <trkpt lat="60.0017413" lon="17.7355963">
        <ele>45.7999</ele>
        <time>2012-04-11T18:17:48Z</time>
      </trkpt>
      <trkpt lat="60.0016166" lon="17.7357664">
        <ele>44.8386</ele>
        <time>2012-04-11T18:17:55Z</time>
      </trkpt>
      <trkpt lat="60.0014356" lon="17.7359831">
        <ele>43.8773</ele>
        <time>2012-04-11T18:18:04Z</time>
      </trkpt>
      <trkpt lat="60.0012436" lon="17.7361629">
        <ele>42.916</ele>
        <time>2012-04-11T18:18:10Z</time>
      </trkpt>
      <trkpt lat="60.0009203" lon="17.7363292">
        <ele>43.8773</ele>
        <time>2012-04-11T18:18:17Z</time>
      </trkpt>
      <trkpt lat="60.0005229" lon="17.7366389">
        <ele>43.3966</ele>
        <time>2012-04-11T18:18:25Z</time>
      </trkpt>
      <trkpt lat="60.0002568" lon="17.7367901">
        <ele>44.8386</ele>
        <time>2012-04-11T18:18:31Z</time>
      </trkpt>
      <trkpt lat="60.0000113" lon="17.7368376">
        <ele>48.684</ele>
        <time>2012-04-11T18:18:38Z</time>
      </trkpt>
      <trkpt lat="59.9997373" lon="17.7368171">
        <ele>51.0872</ele>
        <time>2012-04-11T18:18:46Z</time>
      </trkpt>
      <trkpt lat="59.9994445" lon="17.7367845">
        <ele>50.126</ele>
        <time>2012-04-11T18:18:52Z</time>
      </trkpt>
      <trkpt lat="59.9990513" lon="17.7367273">
        <ele>48.684</ele>
        <time>2012-04-11T18:18:58Z</time>
      </trkpt>
      <trkpt lat="59.9985066" lon="17.7366338">
        <ele>47.7225</ele>
        <time>2012-04-11T18:19:06Z</time>
      </trkpt>
      <trkpt lat="59.9981874" lon="17.7365786">
        <ele>49.6453</ele>
        <time>2012-04-11T18:19:12Z</time>
      </trkpt>
      <trkpt lat="59.9979579" lon="17.7365885">
        <ele>50.6066</ele>
        <time>2012-04-11T18:19:17Z</time>
      </trkpt>
      <trkpt lat="59.9975912" lon="17.7365651">
        <ele>49.1646</ele>
        <time>2012-04-11T18:19:25Z</time>
      </trkpt>
      <trkpt lat="59.9973216" lon="17.7365378">
        <ele>46.7612</ele>
        <time>2012-04-11T18:19:30Z</time>
      </trkpt>
      <trkpt lat="59.9970579" lon="17.7364883">
        <ele>43.8773</ele>
        <time>2012-04-11T18:19:34Z</time>
      </trkpt>
      <trkpt lat="59.9967452" lon="17.7364312">
        <ele>41.9547</ele>
        <time>2012-04-11T18:19:39Z</time>
      </trkpt>
      <trkpt lat="59.9963293" lon="17.7361606">
        <ele>44.358</ele>
        <time>2012-04-11T18:19:45Z</time>
      </trkpt>
      <trkpt lat="59.9959925" lon="17.7360853">
        <ele>43.8773</ele>
        <time>2012-04-11T18:19:50Z</time>
      </trkpt>
      <trkpt lat="59.9956049" lon="17.7360865">
        <ele>42.4354</ele>
        <time>2012-04-11T18:19:56Z</time>
      </trkpt>
      <trkpt lat="59.9951471" lon="17.7360215">
        <ele>40.5128</ele>
        <time>2012-04-11T18:20:02Z</time>
      </trkpt>
      <trkpt lat="59.9949348" lon="17.7359368">
        <ele>40.0321</ele>
        <time>2012-04-11T18:20:05Z</time>
      </trkpt>
      <trkpt lat="59.9944659" lon="17.7356101">
        <ele>40.5128</ele>
        <time>2012-04-11T18:20:12Z</time>
      </trkpt>
      <trkpt lat="59.9940371" lon="17.73552">
        <ele>40.5128</ele>
        <time>2012-04-11T18:20:19Z</time>
      </trkpt>
      <trkpt lat="59.9938471" lon="17.7354725">
        <ele>38.5901</ele>
        <time>2012-04-11T18:20:23Z</time>
      </trkpt>
      <trkpt lat="59.9936694" lon="17.7354682">
        <ele>36.1868</ele>
        <time>2012-04-11T18:20:27Z</time>
      </trkpt>
      <trkpt lat="59.9935898" lon="17.7354962">
        <ele>35.2255</ele>
        <time>2012-04-11T18:20:29Z</time>
      </trkpt>
      <trkpt lat="59.993437" lon="17.7356289">
        <ele>35.7061</ele>
        <time>2012-04-11T18:20:33Z</time>
      </trkpt>
      <trkpt lat="59.9933041" lon="17.7358189">
        <ele>38.5901</ele>
        <time>2012-04-11T18:20:37Z</time>
      </trkpt>
      <trkpt lat="59.9930631" lon="17.7362525">
        <ele>43.8773</ele>
        <time>2012-04-11T18:20:44Z</time>
      </trkpt>
      <trkpt lat="59.9928579" lon="17.7366765">
        <ele>49.1646</ele>
        <time>2012-04-11T18:20:51Z</time>
      </trkpt>
      <trkpt lat="59.9927866" lon="17.7368232">
        <ele>49.1646</ele>
        <time>2012-04-11T18:20:54Z</time>
      </trkpt>
      <trkpt lat="59.9925235" lon="17.7371854">
        <ele>46.2806</ele>
        <time>2012-04-11T18:21:03Z</time>
      </trkpt>
      <trkpt lat="59.9922246" lon="17.7374159">
        <ele>44.8386</ele>
        <time>2012-04-11T18:21:11Z</time>
      </trkpt>
      <trkpt lat="59.9920997" lon="17.7374854">
        <ele>43.8773</ele>
        <time>2012-04-11T18:21:14Z</time>
      </trkpt>
      <trkpt lat="59.9917696" lon="17.7375437">
        <ele>43.8773</ele>
        <time>2012-04-11T18:21:21Z</time>
      </trkpt>
      <trkpt lat="59.9914548" lon="17.7375659">
        <ele>42.916</ele>
        <time>2012-04-11T18:21:28Z</time>
      </trkpt>
      <trkpt lat="59.9910481" lon="17.7377065">
        <ele>44.358</ele>
        <time>2012-04-11T18:21:36Z</time>
      </trkpt>
      <trkpt lat="59.9909187" lon="17.7377505">
        <ele>43.8773</ele>
        <time>2012-04-11T18:21:39Z</time>
      </trkpt>
      <trkpt lat="59.9907716" lon="17.7378382">
        <ele>42.916</ele>
        <time>2012-04-11T18:21:42Z</time>
      </trkpt>
      <trkpt lat="59.9903706" lon="17.738051">
        <ele>42.916</ele>
        <time>2012-04-11T18:21:50Z</time>
      </trkpt>
      <trkpt lat="59.9899965" lon="17.7382261">
        <ele>43.3966</ele>
        <time>2012-04-11T18:21:57Z</time>
      </trkpt>
      <trkpt lat="59.9896264" lon="17.738355">
        <ele>45.3192</ele>
        <time>2012-04-11T18:22:04Z</time>
      </trkpt>
      <trkpt lat="59.989364" lon="17.7384517">
        <ele>44.358</ele>
        <time>2012-04-11T18:22:10Z</time>
      </trkpt>
      <trkpt lat="59.9890993" lon="17.7386234">
        <ele>42.916</ele>
        <time>2012-04-11T18:22:16Z</time>
      </trkpt>
      <trkpt lat="59.9887487" lon="17.7388762">
        <ele>40.5128</ele>
        <time>2012-04-11T18:22:23Z</time>
      </trkpt>
      <trkpt lat="59.9884482" lon="17.7390418">
        <ele>40.0321</ele>
        <time>2012-04-11T18:22:28Z</time>
      </trkpt>
      <trkpt lat="59.9879625" lon="17.7391708">
        <ele>40.5128</ele>
        <time>2012-04-11T18:22:35Z</time>
      </trkpt>
      <trkpt lat="59.9874007" lon="17.7392647">
        <ele>40.0321</ele>
        <time>2012-04-11T18:22:43Z</time>
      </trkpt>
      <trkpt lat="59.9870036" lon="17.7392134">
        <ele>41.474</ele>
        <time>2012-04-11T18:22:49Z</time>
      </trkpt>
      <trkpt lat="59.9865566" lon="17.7388447">
        <ele>42.916</ele>
        <time>2012-04-11T18:22:56Z</time>
      </trkpt>
      <trkpt lat="59.9862683" lon="17.7386048">
        <ele>43.3966</ele>
        <time>2012-04-11T18:23:00Z</time>
      </trkpt>
      <trkpt lat="59.9861111" lon="17.7384943">
        <ele>42.916</ele>
        <time>2012-04-11T18:23:02Z</time>
      </trkpt>
      <trkpt lat="59.9858505" lon="17.7383634">
        <ele>42.4354</ele>
        <time>2012-04-11T18:23:05Z</time>
      </trkpt>
      <trkpt lat="59.9853336" lon="17.7382074">
        <ele>43.3966</ele>
        <time>2012-04-11T18:23:11Z</time>
      </trkpt>
      <trkpt lat="59.9848412" lon="17.7381224">
        <ele>42.916</ele>
        <time>2012-04-11T18:23:17Z</time>
      </trkpt>
      <trkpt lat="59.9844244" lon="17.7380001">
        <ele>41.474</ele>
        <time>2012-04-11T18:23:22Z</time>
      </trkpt>
      <trkpt lat="59.9840742" lon="17.7379374">
        <ele>39.0707</ele>
        <time>2012-04-11T18:23:27Z</time>
      </trkpt>
      <trkpt lat="59.9836182" lon="17.7379919">
        <ele>35.7061</ele>
        <time>2012-04-11T18:23:33Z</time>
      </trkpt>
      <trkpt lat="59.9832395" lon="17.7380391">
        <ele>34.2642</ele>
        <time>2012-04-11T18:23:39Z</time>
      </trkpt>
      <trkpt lat="59.9831271" lon="17.7380425">
        <ele>32.8223</ele>
        <time>2012-04-11T18:23:41Z</time>
      </trkpt>
      <trkpt lat="59.9827863" lon="17.7380084">
        <ele>33.7834</ele>
        <time>2012-04-11T18:23:47Z</time>
      </trkpt>
      <trkpt lat="59.9825619" lon="17.7379975">
        <ele>36.1868</ele>
        <time>2012-04-11T18:23:51Z</time>
      </trkpt>
      <trkpt lat="59.9822571" lon="17.7380488">
        <ele>38.1094</ele>
        <time>2012-04-11T18:23:56Z</time>
      </trkpt>
      <trkpt lat="59.9819405" lon="17.7381778">
        <ele>36.1868</ele>
        <time>2012-04-11T18:24:02Z</time>
      </trkpt>
      <trkpt lat="59.9816177" lon="17.7383172">
        <ele>35.7061</ele>
        <time>2012-04-11T18:24:08Z</time>
      </trkpt>
      <trkpt lat="59.9813418" lon="17.7384456">
        <ele>38.1094</ele>
        <time>2012-04-11T18:24:12Z</time>
      </trkpt>
      <trkpt lat="59.9807363" lon="17.7386783">
        <ele>40.9934</ele>
        <time>2012-04-11T18:24:20Z</time>
      </trkpt>
      <trkpt lat="59.9803958" lon="17.7387694">
        <ele>37.6287</ele>
        <time>2012-04-11T18:24:25Z</time>
      </trkpt>
      <trkpt lat="59.9799643" lon="17.7387239">
        <ele>37.1481</ele>
        <time>2012-04-11T18:24:31Z</time>
      </trkpt>
      <trkpt lat="59.9795819" lon="17.7388727">
        <ele>37.6287</ele>
        <time>2012-04-11T18:24:37Z</time>
      </trkpt>
      <trkpt lat="59.9791537" lon="17.7391331">
        <ele>37.6287</ele>
        <time>2012-04-11T18:24:44Z</time>
      </trkpt>
      <trkpt lat="59.9790481" lon="17.7391828">
        <ele>38.1094</ele>
        <time>2012-04-11T18:24:46Z</time>
      </trkpt>
      <trkpt lat="59.9789303" lon="17.7393408">
        <ele>38.1094</ele>
        <time>2012-04-11T18:24:50Z</time>
      </trkpt>
      <trkpt lat="59.9789495" lon="17.7394284">
        <ele>38.5901</ele>
        <time>2012-04-11T18:24:52Z</time>
      </trkpt>
      <trkpt lat="59.9790013" lon="17.739547">
        <ele>38.5901</ele>
        <time>2012-04-11T18:24:55Z</time>
      </trkpt>
    </trkseg>
  </trk>
</gpx>